
<gpx xmlns="http://www.topografix.com/GPX/1/1" xmlns:gpxx="http://www.garmin.com/xmlschemas/GpxExtensions/v3" xmlns:xsi="http://www.w3.org/2001/XMLSchema-instance" version="1.1" creator="Adze - https://getadze.com/" xsi:schemaLocation="http://www.topografix.com/GPX/1/1 http://www.topografix.com/GPX/1/1/gpx.xsd http://www.garmin.com/xmlschemas/GpxExtensions/v3 http://www8.garmin.com/xmlschemas/GpxExtensionsv3.xsd">
    <metadata>
        <name>Untitled Document</name>
        <link href="http://www.garmin.com"></link>
        <time>2019-06-24T03:38:11.975Z</time>
    </metadata>
    <trk>
        <name>May 2019 - Sunday</name>
        <extensions>
            <gpxx:TrackExtension>
                <gpxx:DisplayColor>Magenta</gpxx:DisplayColor>
            </gpxx:TrackExtension>
        </extensions>
        <trkseg>
            <trkpt lon="100.974368" lat="12.906056">
                <ele>92.900000</ele>
                <time>2019-02-24T05:58:51Z</time>
            </trkpt>
            <trkpt lon="100.974206" lat="12.905605">
                <ele>91.460000</ele>
                <time>2019-02-24T05:59:13Z</time>
            </trkpt>
            <trkpt lon="100.974091" lat="12.904986">
                <ele>90.500000</ele>
                <time>2019-02-24T05:59:31Z</time>
            </trkpt>
            <trkpt lon="100.974063" lat="12.904813">
                <ele>90.500000</ele>
                <time>2019-02-24T05:59:36Z</time>
            </trkpt>
            <trkpt lon="100.973628" lat="12.904671">
                <ele>90.980000</ele>
                <time>2019-02-24T06:00:00Z</time>
            </trkpt>
            <trkpt lon="100.973430" lat="12.904645">
                <ele>90.980000</ele>
                <time>2019-02-24T06:00:08Z</time>
            </trkpt>
            <trkpt lon="100.973336" lat="12.904643">
                <ele>90.980000</ele>
                <time>2019-02-24T06:00:11Z</time>
            </trkpt>
            <trkpt lon="100.973179" lat="12.904767">
                <ele>91.940000</ele>
                <time>2019-02-24T06:00:27Z</time>
            </trkpt>
            <trkpt lon="100.972922" lat="12.905022">
                <ele>91.940000</ele>
                <time>2019-02-24T06:00:39Z</time>
            </trkpt>
            <trkpt lon="100.972804" lat="12.905163">
                <ele>92.420000</ele>
                <time>2019-02-24T06:00:45Z</time>
            </trkpt>
            <trkpt lon="100.972701" lat="12.905551">
                <ele>92.420000</ele>
                <time>2019-02-24T06:00:59Z</time>
            </trkpt>
            <trkpt lon="100.972678" lat="12.905647">
                <ele>92.420000</ele>
                <time>2019-02-24T06:01:12Z</time>
            </trkpt>
            <trkpt lon="100.972636" lat="12.905705">
                <ele>93.390000</ele>
                <time>2019-02-24T06:01:16Z</time>
            </trkpt>
            <trkpt lon="100.972133" lat="12.906137">
                <ele>93.390000</ele>
                <time>2019-02-24T06:01:40Z</time>
            </trkpt>
            <trkpt lon="100.971383" lat="12.906298">
                <ele>92.900000</ele>
                <time>2019-02-24T06:02:04Z</time>
            </trkpt>
            <trkpt lon="100.970542" lat="12.906384">
                <ele>90.980000</ele>
                <time>2019-02-24T06:02:29Z</time>
            </trkpt>
            <trkpt lon="100.969952" lat="12.906382">
                <ele>89.540000</ele>
                <time>2019-02-24T06:02:49Z</time>
            </trkpt>
            <trkpt lon="100.969653" lat="12.906376">
                <ele>89.060000</ele>
                <time>2019-02-24T06:03:00Z</time>
            </trkpt>
            <trkpt lon="100.969882" lat="12.905895">
                <ele>90.500000</ele>
                <time>2019-02-24T06:03:28Z</time>
            </trkpt>
            <trkpt lon="100.969788" lat="12.905195">
                <ele>90.500000</ele>
                <time>2019-02-24T06:03:48Z</time>
            </trkpt>
            <trkpt lon="100.969567" lat="12.904938">
                <ele>90.020000</ele>
                <time>2019-02-24T06:04:01Z</time>
            </trkpt>
            <trkpt lon="100.969448" lat="12.904918">
                <ele>90.020000</ele>
                <time>2019-02-24T06:04:05Z</time>
            </trkpt>
            <trkpt lon="100.968620" lat="12.905141">
                <ele>89.060000</ele>
                <time>2019-02-24T06:04:25Z</time>
            </trkpt>
            <trkpt lon="100.967821" lat="12.905145">
                <ele>87.620000</ele>
                <time>2019-02-24T06:04:46Z</time>
            </trkpt>
            <trkpt lon="100.967032" lat="12.905200">
                <ele>87.140000</ele>
                <time>2019-02-24T06:05:08Z</time>
            </trkpt>
            <trkpt lon="100.966475" lat="12.905227">
                <ele>86.180000</ele>
                <time>2019-02-24T06:05:27Z</time>
            </trkpt>
            <trkpt lon="100.965982" lat="12.905107">
                <ele>85.210000</ele>
                <time>2019-02-24T06:05:46Z</time>
            </trkpt>
            <trkpt lon="100.965211" lat="12.904925">
                <ele>84.250000</ele>
                <time>2019-02-24T06:06:08Z</time>
            </trkpt>
            <trkpt lon="100.964830" lat="12.904728">
                <ele>83.770000</ele>
                <time>2019-02-24T06:06:24Z</time>
            </trkpt>
            <trkpt lon="100.964660" lat="12.904825">
                <ele>83.290000</ele>
                <time>2019-02-24T06:06:39Z</time>
            </trkpt>
            <trkpt lon="100.964724" lat="12.904803">
                <ele>83.770000</ele>
                <time>2019-02-24T06:07:08Z</time>
            </trkpt>
            <trkpt lon="100.964280" lat="12.904477">
                <ele>82.330000</ele>
                <time>2019-02-24T06:07:31Z</time>
            </trkpt>
            <trkpt lon="100.964044" lat="12.904505">
                <ele>81.370000</ele>
                <time>2019-02-24T06:07:45Z</time>
            </trkpt>
            <trkpt lon="100.963851" lat="12.904598">
                <ele>79.930000</ele>
                <time>2019-02-24T06:07:55Z</time>
            </trkpt>
            <trkpt lon="100.963676" lat="12.904802">
                <ele>78.970000</ele>
                <time>2019-02-24T06:08:02Z</time>
            </trkpt>
            <trkpt lon="100.963612" lat="12.905225">
                <ele>76.560000</ele>
                <time>2019-02-24T06:08:16Z</time>
            </trkpt>
            <trkpt lon="100.963443" lat="12.905335">
                <ele>75.600000</ele>
                <time>2019-02-24T06:08:28Z</time>
            </trkpt>
            <trkpt lon="100.963018" lat="12.905219">
                <ele>74.640000</ele>
                <time>2019-02-24T06:08:52Z</time>
            </trkpt>
            <trkpt lon="100.962584" lat="12.905153">
                <ele>72.720000</ele>
                <time>2019-02-24T06:09:11Z</time>
            </trkpt>
            <trkpt lon="100.962485" lat="12.905199">
                <ele>73.200000</ele>
                <time>2019-02-24T06:09:23Z</time>
            </trkpt>
            <trkpt lon="100.962422" lat="12.905275">
                <ele>71.270000</ele>
                <time>2019-02-24T06:09:44Z</time>
            </trkpt>
            <trkpt lon="100.962097" lat="12.905334">
                <ele>69.830000</ele>
                <time>2019-02-24T06:10:18Z</time>
            </trkpt>
            <trkpt lon="100.961791" lat="12.905521">
                <ele>69.350000</ele>
                <time>2019-02-24T06:10:39Z</time>
            </trkpt>
            <trkpt lon="100.961699" lat="12.905540">
                <ele>68.870000</ele>
                <time>2019-02-24T06:10:48Z</time>
            </trkpt>
            <trkpt lon="100.961410" lat="12.905565">
                <ele>68.390000</ele>
                <time>2019-02-24T06:11:03Z</time>
            </trkpt>
            <trkpt lon="100.961000" lat="12.905922">
                <ele>68.390000</ele>
                <time>2019-02-24T06:11:21Z</time>
            </trkpt>
            <trkpt lon="100.960787" lat="12.906273">
                <ele>66.950000</ele>
                <time>2019-02-24T06:11:44Z</time>
            </trkpt>
            <trkpt lon="100.960721" lat="12.906375">
                <ele>66.950000</ele>
                <time>2019-02-24T06:11:52Z</time>
            </trkpt>
            <trkpt lon="100.960555" lat="12.906479">
                <ele>66.950000</ele>
                <time>2019-02-24T06:12:07Z</time>
            </trkpt>
            <trkpt lon="100.960472" lat="12.906529">
                <ele>66.950000</ele>
                <time>2019-02-24T06:12:12Z</time>
            </trkpt>
            <trkpt lon="100.960390" lat="12.906543">
                <ele>65.990000</ele>
                <time>2019-02-24T06:12:16Z</time>
            </trkpt>
            <trkpt lon="100.960036" lat="12.906572">
                <ele>65.030000</ele>
                <time>2019-02-24T06:12:34Z</time>
            </trkpt>
            <trkpt lon="100.959688" lat="12.906657">
                <ele>64.550000</ele>
                <time>2019-02-24T06:12:48Z</time>
            </trkpt>
            <trkpt lon="100.959448" lat="12.906557">
                <ele>65.510000</ele>
                <time>2019-02-24T06:13:11Z</time>
            </trkpt>
            <trkpt lon="100.959049" lat="12.906809">
                <ele>65.030000</ele>
                <time>2019-02-24T06:13:27Z</time>
            </trkpt>
            <trkpt lon="100.959012" lat="12.906840">
                <ele>65.030000</ele>
                <time>2019-02-24T06:13:35Z</time>
            </trkpt>
            <trkpt lon="100.958855" lat="12.906990">
                <ele>64.550000</ele>
                <time>2019-02-24T06:13:57Z</time>
            </trkpt>
            <trkpt lon="100.958778" lat="12.907056">
                <ele>64.070000</ele>
                <time>2019-02-24T06:14:11Z</time>
            </trkpt>
            <trkpt lon="100.958423" lat="12.907315">
                <ele>64.070000</ele>
                <time>2019-02-24T06:14:30Z</time>
            </trkpt>
            <trkpt lon="100.958228" lat="12.907655">
                <ele>63.580000</ele>
                <time>2019-02-24T06:14:49Z</time>
            </trkpt>
            <trkpt lon="100.958139" lat="12.908005">
                <ele>63.580000</ele>
                <time>2019-02-24T06:15:10Z</time>
            </trkpt>
            <trkpt lon="100.958159" lat="12.908051">
                <ele>63.580000</ele>
                <time>2019-02-24T06:15:25Z</time>
            </trkpt>
            <trkpt lon="100.958154" lat="12.908125">
                <ele>63.580000</ele>
                <time>2019-02-24T06:15:37Z</time>
            </trkpt>
            <trkpt lon="100.958113" lat="12.908587">
                <ele>64.550000</ele>
                <time>2019-02-24T06:16:00Z</time>
            </trkpt>
            <trkpt lon="100.958085" lat="12.908960">
                <ele>64.550000</ele>
                <time>2019-02-24T06:16:18Z</time>
            </trkpt>
            <trkpt lon="100.957983" lat="12.909437">
                <ele>65.510000</ele>
                <time>2019-02-24T06:16:41Z</time>
            </trkpt>
            <trkpt lon="100.957762" lat="12.909676">
                <ele>66.470000</ele>
                <time>2019-02-24T06:17:00Z</time>
            </trkpt>
            <trkpt lon="100.957380" lat="12.909646">
                <ele>65.990000</ele>
                <time>2019-02-24T06:17:17Z</time>
            </trkpt>
            <trkpt lon="100.957046" lat="12.909739">
                <ele>65.990000</ele>
                <time>2019-02-24T06:17:33Z</time>
            </trkpt>
            <trkpt lon="100.956735" lat="12.909933">
                <ele>67.430000</ele>
                <time>2019-02-24T06:17:51Z</time>
            </trkpt>
            <trkpt lon="100.956377" lat="12.910057">
                <ele>67.910000</ele>
                <time>2019-02-24T06:18:11Z</time>
            </trkpt>
            <trkpt lon="100.956114" lat="12.910253">
                <ele>68.390000</ele>
                <time>2019-02-24T06:18:30Z</time>
            </trkpt>
            <trkpt lon="100.955998" lat="12.910628">
                <ele>69.350000</ele>
                <time>2019-02-24T06:18:51Z</time>
            </trkpt>
            <trkpt lon="100.955827" lat="12.910995">
                <ele>68.870000</ele>
                <time>2019-02-24T06:19:11Z</time>
            </trkpt>
            <trkpt lon="100.955662" lat="12.911399">
                <ele>69.830000</ele>
                <time>2019-02-24T06:19:30Z</time>
            </trkpt>
            <trkpt lon="100.955547" lat="12.911875">
                <ele>71.270000</ele>
                <time>2019-02-24T06:19:49Z</time>
            </trkpt>
            <trkpt lon="100.955436" lat="12.912360">
                <ele>72.240000</ele>
                <time>2019-02-24T06:20:09Z</time>
            </trkpt>
            <trkpt lon="100.955256" lat="12.912717">
                <ele>72.720000</ele>
                <time>2019-02-24T06:20:26Z</time>
            </trkpt>
            <trkpt lon="100.955035" lat="12.913012">
                <ele>74.160000</ele>
                <time>2019-02-24T06:20:42Z</time>
            </trkpt>
            <trkpt lon="100.954766" lat="12.913511">
                <ele>75.600000</ele>
                <time>2019-02-24T06:21:06Z</time>
            </trkpt>
            <trkpt lon="100.954630" lat="12.913975">
                <ele>76.560000</ele>
                <time>2019-02-24T06:21:28Z</time>
            </trkpt>
            <trkpt lon="100.954580" lat="12.914350">
                <ele>77.040000</ele>
                <time>2019-02-24T06:21:44Z</time>
            </trkpt>
            <trkpt lon="100.954504" lat="12.914572">
                <ele>78.000000</ele>
                <time>2019-02-24T06:21:54Z</time>
            </trkpt>
            <trkpt lon="100.954277" lat="12.914459">
                <ele>77.520000</ele>
                <time>2019-02-24T06:22:09Z</time>
            </trkpt>
            <trkpt lon="100.953856" lat="12.914298">
                <ele>78.000000</ele>
                <time>2019-02-24T06:23:33Z</time>
            </trkpt>
            <trkpt lon="100.953244" lat="12.914011">
                <ele>77.040000</ele>
                <time>2019-02-24T06:23:56Z</time>
            </trkpt>
            <trkpt lon="100.953157" lat="12.913981">
                <ele>79.450000</ele>
                <time>2019-02-24T06:24:00Z</time>
            </trkpt>
            <trkpt lon="100.953117" lat="12.914269">
                <ele>79.450000</ele>
                <time>2019-02-24T06:24:18Z</time>
            </trkpt>
            <trkpt lon="100.953162" lat="12.914703">
                <ele>81.370000</ele>
                <time>2019-02-24T06:24:39Z</time>
            </trkpt>
            <trkpt lon="100.953250" lat="12.915333">
                <ele>79.450000</ele>
                <time>2019-02-24T06:25:00Z</time>
            </trkpt>
            <trkpt lon="100.953395" lat="12.916562">
                <ele>77.040000</ele>
                <time>2019-02-24T06:25:26Z</time>
            </trkpt>
            <trkpt lon="100.953520" lat="12.917927">
                <ele>75.120000</ele>
                <time>2019-02-24T06:25:52Z</time>
            </trkpt>
            <trkpt lon="100.953530" lat="12.918125">
                <ele>74.160000</ele>
                <time>2019-02-24T06:25:56Z</time>
            </trkpt>
            <trkpt lon="100.953608" lat="12.919240">
                <ele>71.270000</ele>
                <time>2019-02-24T06:26:20Z</time>
            </trkpt>
            <trkpt lon="100.953718" lat="12.920053">
                <ele>70.790000</ele>
                <time>2019-02-24T06:26:41Z</time>
            </trkpt>
            <trkpt lon="100.955729" lat="12.920515">
                <ele>99.150000</ele>
                <time>2019-05-27T04:29:56Z</time>
            </trkpt>
            <trkpt lon="100.955677" lat="12.920504">
                <ele>99.630000</ele>
                <time>2019-05-27T04:29:58Z</time>
            </trkpt>
            <trkpt lon="100.955634" lat="12.920514">
                <ele>98.190000</ele>
                <time>2019-05-27T04:30:18Z</time>
            </trkpt>
            <trkpt lon="100.955833" lat="12.920508">
                <ele>94.830000</ele>
                <time>2019-05-27T04:30:27Z</time>
            </trkpt>
            <trkpt lon="100.955842" lat="12.920511">
                <ele>90.980000</ele>
                <time>2019-05-27T04:30:31Z</time>
            </trkpt>
            <trkpt lon="100.955847" lat="12.920514">
                <ele>88.100000</ele>
                <time>2019-05-27T04:30:34Z</time>
            </trkpt>
            <trkpt lon="100.955850" lat="12.920518">
                <ele>84.730000</ele>
                <time>2019-05-27T04:30:38Z</time>
            </trkpt>
            <trkpt lon="100.955849" lat="12.920520">
                <ele>81.850000</ele>
                <time>2019-05-27T04:30:41Z</time>
            </trkpt>
            <trkpt lon="100.955838" lat="12.920617">
                <ele>77.520000</ele>
                <time>2019-05-27T04:30:47Z</time>
            </trkpt>
            <trkpt lon="100.955806" lat="12.920669">
                <ele>75.600000</ele>
                <time>2019-05-27T04:30:50Z</time>
            </trkpt>
            <trkpt lon="100.955756" lat="12.920753">
                <ele>72.240000</ele>
                <time>2019-05-27T04:30:57Z</time>
            </trkpt>
            <trkpt lon="100.955743" lat="12.920831">
                <ele>68.870000</ele>
                <time>2019-05-27T04:31:02Z</time>
            </trkpt>
            <trkpt lon="100.955821" lat="12.920928">
                <ele>65.510000</ele>
                <time>2019-05-27T04:31:11Z</time>
            </trkpt>
            <trkpt lon="100.955826" lat="12.920949">
                <ele>65.030000</ele>
                <time>2019-05-27T04:31:12Z</time>
            </trkpt>
            <trkpt lon="100.955852" lat="12.921052">
                <ele>63.580000</ele>
                <time>2019-05-27T04:31:16Z</time>
            </trkpt>
            <trkpt lon="100.955904" lat="12.921113">
                <ele>62.140000</ele>
                <time>2019-05-27T04:31:20Z</time>
            </trkpt>
            <trkpt lon="100.955963" lat="12.921128">
                <ele>61.660000</ele>
                <time>2019-05-27T04:31:24Z</time>
            </trkpt>
            <trkpt lon="100.956023" lat="12.921131">
                <ele>61.180000</ele>
                <time>2019-05-27T04:31:28Z</time>
            </trkpt>
            <trkpt lon="100.956104" lat="12.921123">
                <ele>59.740000</ele>
                <time>2019-05-27T04:31:33Z</time>
            </trkpt>
            <trkpt lon="100.956177" lat="12.921115">
                <ele>59.260000</ele>
                <time>2019-05-27T04:31:38Z</time>
            </trkpt>
            <trkpt lon="100.956238" lat="12.921182">
                <ele>58.300000</ele>
                <time>2019-05-27T04:31:43Z</time>
            </trkpt>
            <trkpt lon="100.956247" lat="12.921480">
                <ele>56.370000</ele>
                <time>2019-05-27T04:31:54Z</time>
            </trkpt>
            <trkpt lon="100.956277" lat="12.921817">
                <ele>54.930000</ele>
                <time>2019-05-27T04:32:07Z</time>
            </trkpt>
            <trkpt lon="100.956279" lat="12.922017">
                <ele>53.970000</ele>
                <time>2019-05-27T04:32:13Z</time>
            </trkpt>
            <trkpt lon="100.956112" lat="12.922165">
                <ele>53.970000</ele>
                <time>2019-05-27T04:32:22Z</time>
            </trkpt>
            <trkpt lon="100.955923" lat="12.922458">
                <ele>53.490000</ele>
                <time>2019-05-27T04:33:32Z</time>
            </trkpt>
            <trkpt lon="100.955936" lat="12.922649">
                <ele>53.010000</ele>
                <time>2019-05-27T04:33:43Z</time>
            </trkpt>
            <trkpt lon="100.955971" lat="12.922907">
                <ele>52.050000</ele>
                <time>2019-05-27T04:33:54Z</time>
            </trkpt>
            <trkpt lon="100.955982" lat="12.923317">
                <ele>50.610000</ele>
                <time>2019-05-27T04:34:07Z</time>
            </trkpt>
            <trkpt lon="100.955970" lat="12.923777">
                <ele>49.650000</ele>
                <time>2019-05-27T04:34:20Z</time>
            </trkpt>
            <trkpt lon="100.955971" lat="12.923901">
                <ele>48.680000</ele>
                <time>2019-05-27T04:34:25Z</time>
            </trkpt>
            <trkpt lon="100.956051" lat="12.923999">
                <ele>48.680000</ele>
                <time>2019-05-27T04:34:32Z</time>
            </trkpt>
            <trkpt lon="100.956062" lat="12.924110">
                <ele>48.200000</ele>
                <time>2019-05-27T04:34:36Z</time>
            </trkpt>
            <trkpt lon="100.956136" lat="12.924151">
                <ele>47.720000</ele>
                <time>2019-05-27T04:34:40Z</time>
            </trkpt>
            <trkpt lon="100.956232" lat="12.924113">
                <ele>47.720000</ele>
                <time>2019-05-27T04:34:45Z</time>
            </trkpt>
            <trkpt lon="100.956368" lat="12.924238">
                <ele>47.240000</ele>
                <time>2019-05-27T04:34:55Z</time>
            </trkpt>
            <trkpt lon="100.956376" lat="12.924372">
                <ele>47.240000</ele>
                <time>2019-05-27T04:35:00Z</time>
            </trkpt>
            <trkpt lon="100.956407" lat="12.924624">
                <ele>46.760000</ele>
                <time>2019-05-27T04:35:10Z</time>
            </trkpt>
            <trkpt lon="100.956428" lat="12.924871">
                <ele>45.800000</ele>
                <time>2019-05-27T04:35:20Z</time>
            </trkpt>
            <trkpt lon="100.956432" lat="12.925174">
                <ele>45.320000</ele>
                <time>2019-05-27T04:35:32Z</time>
            </trkpt>
            <trkpt lon="100.956281" lat="12.925260">
                <ele>45.800000</ele>
                <time>2019-05-27T04:35:40Z</time>
            </trkpt>
            <trkpt lon="100.956242" lat="12.925265">
                <ele>45.320000</ele>
                <time>2019-05-27T04:35:42Z</time>
            </trkpt>
            <trkpt lon="100.956083" lat="12.925268">
                <ele>45.320000</ele>
                <time>2019-05-27T04:35:53Z</time>
            </trkpt>
            <trkpt lon="100.956084" lat="12.925280">
                <ele>45.320000</ele>
                <time>2019-05-27T04:35:54Z</time>
            </trkpt>
            <trkpt lon="100.956154" lat="12.925587">
                <ele>45.320000</ele>
                <time>2019-05-27T04:36:08Z</time>
            </trkpt>
            <trkpt lon="100.956167" lat="12.925640">
                <ele>45.320000</ele>
                <time>2019-05-27T04:36:10Z</time>
            </trkpt>
            <trkpt lon="100.956126" lat="12.925715">
                <ele>44.840000</ele>
                <time>2019-05-27T04:36:14Z</time>
            </trkpt>
            <trkpt lon="100.956100" lat="12.925760">
                <ele>44.840000</ele>
                <time>2019-05-27T04:36:17Z</time>
            </trkpt>
            <trkpt lon="100.956124" lat="12.926080">
                <ele>44.360000</ele>
                <time>2019-05-27T04:36:29Z</time>
            </trkpt>
            <trkpt lon="100.956131" lat="12.926240">
                <ele>43.880000</ele>
                <time>2019-05-27T04:36:36Z</time>
            </trkpt>
            <trkpt lon="100.956129" lat="12.926356">
                <ele>43.880000</ele>
                <time>2019-05-27T04:36:41Z</time>
            </trkpt>
            <trkpt lon="100.956169" lat="12.926738">
                <ele>42.920000</ele>
                <time>2019-05-27T04:36:57Z</time>
            </trkpt>
            <trkpt lon="100.956186" lat="12.926864">
                <ele>43.400000</ele>
                <time>2019-05-27T04:37:03Z</time>
            </trkpt>
            <trkpt lon="100.956231" lat="12.927193">
                <ele>42.920000</ele>
                <time>2019-05-27T04:37:19Z</time>
            </trkpt>
            <trkpt lon="100.956255" lat="12.927317">
                <ele>43.400000</ele>
                <time>2019-05-27T04:37:26Z</time>
            </trkpt>
            <trkpt lon="100.956250" lat="12.927414">
                <ele>42.920000</ele>
                <time>2019-05-27T04:37:43Z</time>
            </trkpt>
            <trkpt lon="100.956229" lat="12.927390">
                <ele>43.400000</ele>
                <time>2019-05-27T04:38:03Z</time>
            </trkpt>
            <trkpt lon="100.956137" lat="12.927425">
                <ele>43.400000</ele>
                <time>2019-05-27T04:38:18Z</time>
            </trkpt>
            <trkpt lon="100.956143" lat="12.927487">
                <ele>42.920000</ele>
                <time>2019-05-27T04:38:28Z</time>
            </trkpt>
            <trkpt lon="100.956175" lat="12.927562">
                <ele>43.400000</ele>
                <time>2019-05-27T04:38:33Z</time>
            </trkpt>
            <trkpt lon="100.956249" lat="12.927642">
                <ele>42.920000</ele>
                <time>2019-05-27T04:38:46Z</time>
            </trkpt>
            <trkpt lon="100.956265" lat="12.927639">
                <ele>42.920000</ele>
                <time>2019-05-27T04:38:59Z</time>
            </trkpt>
            <trkpt lon="100.956247" lat="12.927650">
                <ele>42.920000</ele>
                <time>2019-05-27T04:39:23Z</time>
            </trkpt>
            <trkpt lon="100.956254" lat="12.927688">
                <ele>42.920000</ele>
                <time>2019-05-27T04:39:44Z</time>
            </trkpt>
            <trkpt lon="100.956244" lat="12.927697">
                <ele>42.920000</ele>
                <time>2019-05-27T04:40:15Z</time>
            </trkpt>
            <trkpt lon="100.956242" lat="12.927700">
                <ele>42.920000</ele>
                <time>2019-05-27T04:40:36Z</time>
            </trkpt>
            <trkpt lon="100.956242" lat="12.927700">
                <ele>42.920000</ele>
                <time>2019-05-27T04:41:03Z</time>
            </trkpt>
            <trkpt lon="100.956227" lat="12.927700">
                <ele>43.400000</ele>
                <time>2019-05-27T04:41:31Z</time>
            </trkpt>
            <trkpt lon="100.956226" lat="12.927688">
                <ele>43.400000</ele>
                <time>2019-05-27T04:42:08Z</time>
            </trkpt>
            <trkpt lon="100.956239" lat="12.927726">
                <ele>43.880000</ele>
                <time>2019-05-27T04:42:26Z</time>
            </trkpt>
            <trkpt lon="100.956296" lat="12.928020">
                <ele>43.400000</ele>
                <time>2019-05-27T04:42:39Z</time>
            </trkpt>
            <trkpt lon="100.956264" lat="12.928044">
                <ele>43.400000</ele>
                <time>2019-05-27T04:42:43Z</time>
            </trkpt>
            <trkpt lon="100.956228" lat="12.928020">
                <ele>42.920000</ele>
                <time>2019-05-27T04:42:47Z</time>
            </trkpt>
            <trkpt lon="100.956135" lat="12.928018">
                <ele>43.400000</ele>
                <time>2019-05-27T04:43:00Z</time>
            </trkpt>
            <trkpt lon="100.956229" lat="12.928039">
                <ele>43.400000</ele>
                <time>2019-05-27T04:43:13Z</time>
            </trkpt>
            <trkpt lon="100.956308" lat="12.928111">
                <ele>42.920000</ele>
                <time>2019-05-27T04:43:29Z</time>
            </trkpt>
            <trkpt lon="100.956302" lat="12.928122">
                <ele>42.920000</ele>
                <time>2019-05-27T04:43:31Z</time>
            </trkpt>
            <trkpt lon="100.956326" lat="12.928251">
                <ele>43.400000</ele>
                <time>2019-05-27T04:43:39Z</time>
            </trkpt>
            <trkpt lon="100.956416" lat="12.928458">
                <ele>42.920000</ele>
                <time>2019-05-27T04:43:52Z</time>
            </trkpt>
            <trkpt lon="100.956526" lat="12.928442">
                <ele>42.920000</ele>
                <time>2019-05-27T04:43:58Z</time>
            </trkpt>
            <trkpt lon="100.956564" lat="12.928435">
                <ele>42.920000</ele>
                <time>2019-05-27T04:44:00Z</time>
            </trkpt>
            <trkpt lon="100.956795" lat="12.928688">
                <ele>42.920000</ele>
                <time>2019-05-27T04:44:16Z</time>
            </trkpt>
            <trkpt lon="100.956907" lat="12.928863">
                <ele>42.920000</ele>
                <time>2019-05-27T04:44:26Z</time>
            </trkpt>
            <trkpt lon="100.956931" lat="12.928968">
                <ele>43.400000</ele>
                <time>2019-05-27T04:44:31Z</time>
            </trkpt>
            <trkpt lon="100.956856" lat="12.929171">
                <ele>42.920000</ele>
                <time>2019-05-27T04:44:38Z</time>
            </trkpt>
            <trkpt lon="100.956630" lat="12.929436">
                <ele>42.440000</ele>
                <time>2019-05-27T04:44:50Z</time>
            </trkpt>
            <trkpt lon="100.956583" lat="12.929467">
                <ele>42.920000</ele>
                <time>2019-05-27T04:44:52Z</time>
            </trkpt>
            <trkpt lon="100.956585" lat="12.929870">
                <ele>43.400000</ele>
                <time>2019-05-27T04:45:07Z</time>
            </trkpt>
            <trkpt lon="100.956472" lat="12.929911">
                <ele>43.400000</ele>
                <time>2019-05-27T04:45:12Z</time>
            </trkpt>
            <trkpt lon="100.956341" lat="12.929917">
                <ele>42.920000</ele>
                <time>2019-05-27T04:45:24Z</time>
            </trkpt>
            <trkpt lon="100.956362" lat="12.929896">
                <ele>43.400000</ele>
                <time>2019-05-27T04:45:29Z</time>
            </trkpt>
            <trkpt lon="100.956559" lat="12.929960">
                <ele>43.400000</ele>
                <time>2019-05-27T04:45:40Z</time>
            </trkpt>
            <trkpt lon="100.956752" lat="12.930338">
                <ele>43.400000</ele>
                <time>2019-05-27T04:45:55Z</time>
            </trkpt>
            <trkpt lon="100.956703" lat="12.930749">
                <ele>42.920000</ele>
                <time>2019-05-27T04:46:09Z</time>
            </trkpt>
            <trkpt lon="100.956774" lat="12.931063">
                <ele>42.440000</ele>
                <time>2019-05-27T04:46:21Z</time>
            </trkpt>
            <trkpt lon="100.956754" lat="12.931047">
                <ele>41.950000</ele>
                <time>2019-05-27T04:46:31Z</time>
            </trkpt>
            <trkpt lon="100.956689" lat="12.931008">
                <ele>42.440000</ele>
                <time>2019-05-27T04:46:36Z</time>
            </trkpt>
            <trkpt lon="100.956255" lat="12.930979">
                <ele>42.440000</ele>
                <time>2019-05-27T04:46:50Z</time>
            </trkpt>
            <trkpt lon="100.955894" lat="12.930993">
                <ele>41.950000</ele>
                <time>2019-05-27T04:47:03Z</time>
            </trkpt>
            <trkpt lon="100.955882" lat="12.931227">
                <ele>42.920000</ele>
                <time>2019-05-27T04:47:15Z</time>
            </trkpt>
            <trkpt lon="100.955882" lat="12.931247">
                <ele>42.440000</ele>
                <time>2019-05-27T04:47:16Z</time>
            </trkpt>
            <trkpt lon="100.955991" lat="12.931386">
                <ele>41.950000</ele>
                <time>2019-05-27T04:47:26Z</time>
            </trkpt>
            <trkpt lon="100.955994" lat="12.931412">
                <ele>41.950000</ele>
                <time>2019-05-27T04:47:27Z</time>
            </trkpt>
            <trkpt lon="100.956006" lat="12.931489">
                <ele>42.440000</ele>
                <time>2019-05-27T04:47:30Z</time>
            </trkpt>
            <trkpt lon="100.956094" lat="12.931642">
                <ele>42.440000</ele>
                <time>2019-05-27T04:47:37Z</time>
            </trkpt>
            <trkpt lon="100.956256" lat="12.931990">
                <ele>42.920000</ele>
                <time>2019-05-27T04:47:52Z</time>
            </trkpt>
            <trkpt lon="100.956262" lat="12.932012">
                <ele>42.920000</ele>
                <time>2019-05-27T04:47:53Z</time>
            </trkpt>
            <trkpt lon="100.956458" lat="12.932169">
                <ele>42.920000</ele>
                <time>2019-05-27T04:48:03Z</time>
            </trkpt>
            <trkpt lon="100.956761" lat="12.932359">
                <ele>42.920000</ele>
                <time>2019-05-27T04:48:17Z</time>
            </trkpt>
            <trkpt lon="100.956776" lat="12.932379">
                <ele>42.920000</ele>
                <time>2019-05-27T04:48:18Z</time>
            </trkpt>
            <trkpt lon="100.956791" lat="12.932460">
                <ele>43.400000</ele>
                <time>2019-05-27T04:48:21Z</time>
            </trkpt>
            <trkpt lon="100.956750" lat="12.932747">
                <ele>42.920000</ele>
                <time>2019-05-27T04:48:32Z</time>
            </trkpt>
            <trkpt lon="100.956705" lat="12.932862">
                <ele>43.400000</ele>
                <time>2019-05-27T04:48:37Z</time>
            </trkpt>
            <trkpt lon="100.956596" lat="12.933007">
                <ele>42.920000</ele>
                <time>2019-05-27T04:48:47Z</time>
            </trkpt>
            <trkpt lon="100.956524" lat="12.933168">
                <ele>43.400000</ele>
                <time>2019-05-27T04:48:56Z</time>
            </trkpt>
            <trkpt lon="100.956467" lat="12.933384">
                <ele>43.880000</ele>
                <time>2019-05-27T04:49:05Z</time>
            </trkpt>
            <trkpt lon="100.956357" lat="12.933706">
                <ele>43.400000</ele>
                <time>2019-05-27T04:49:18Z</time>
            </trkpt>
            <trkpt lon="100.956166" lat="12.934117">
                <ele>42.920000</ele>
                <time>2019-05-27T04:49:33Z</time>
            </trkpt>
            <trkpt lon="100.955925" lat="12.934431">
                <ele>43.880000</ele>
                <time>2019-05-27T04:49:48Z</time>
            </trkpt>
            <trkpt lon="100.955850" lat="12.934788">
                <ele>43.880000</ele>
                <time>2019-05-27T04:50:02Z</time>
            </trkpt>
            <trkpt lon="100.955984" lat="12.935029">
                <ele>44.360000</ele>
                <time>2019-05-27T04:50:13Z</time>
            </trkpt>
            <trkpt lon="100.956277" lat="12.935204">
                <ele>44.360000</ele>
                <time>2019-05-27T04:50:27Z</time>
            </trkpt>
            <trkpt lon="100.956231" lat="12.935388">
                <ele>43.880000</ele>
                <time>2019-05-27T04:52:25Z</time>
            </trkpt>
            <trkpt lon="100.955962" lat="12.935415">
                <ele>42.920000</ele>
                <time>2019-05-27T04:52:38Z</time>
            </trkpt>
            <trkpt lon="100.955896" lat="12.935464">
                <ele>43.400000</ele>
                <time>2019-05-27T04:52:42Z</time>
            </trkpt>
            <trkpt lon="100.955835" lat="12.935538">
                <ele>43.400000</ele>
                <time>2019-05-27T04:52:47Z</time>
            </trkpt>
            <trkpt lon="100.955821" lat="12.935566">
                <ele>43.400000</ele>
                <time>2019-05-27T04:52:49Z</time>
            </trkpt>
            <trkpt lon="100.955989" lat="12.935833">
                <ele>43.880000</ele>
                <time>2019-05-27T04:53:03Z</time>
            </trkpt>
            <trkpt lon="100.956136" lat="12.935994">
                <ele>42.920000</ele>
                <time>2019-05-27T04:53:15Z</time>
            </trkpt>
            <trkpt lon="100.956243" lat="12.936043">
                <ele>43.880000</ele>
                <time>2019-05-27T04:53:20Z</time>
            </trkpt>
            <trkpt lon="100.956409" lat="12.936040">
                <ele>43.880000</ele>
                <time>2019-05-27T04:53:27Z</time>
            </trkpt>
            <trkpt lon="100.956558" lat="12.936042">
                <ele>43.880000</ele>
                <time>2019-05-27T04:53:33Z</time>
            </trkpt>
            <trkpt lon="100.956851" lat="12.936011">
                <ele>43.880000</ele>
                <time>2019-05-27T04:53:46Z</time>
            </trkpt>
            <trkpt lon="100.957027" lat="12.936004">
                <ele>44.360000</ele>
                <time>2019-05-27T04:53:53Z</time>
            </trkpt>
            <trkpt lon="100.957156" lat="12.935967">
                <ele>43.880000</ele>
                <time>2019-05-27T04:53:58Z</time>
            </trkpt>
            <trkpt lon="100.957255" lat="12.935968">
                <ele>43.400000</ele>
                <time>2019-05-27T04:54:02Z</time>
            </trkpt>
            <trkpt lon="100.957441" lat="12.936041">
                <ele>43.880000</ele>
                <time>2019-05-27T04:54:10Z</time>
            </trkpt>
            <trkpt lon="100.957662" lat="12.936130">
                <ele>43.880000</ele>
                <time>2019-05-27T04:54:19Z</time>
            </trkpt>
            <trkpt lon="100.957752" lat="12.936517">
                <ele>44.840000</ele>
                <time>2019-05-27T04:54:37Z</time>
            </trkpt>
            <trkpt lon="100.957783" lat="12.936802">
                <ele>45.320000</ele>
                <time>2019-05-27T04:54:51Z</time>
            </trkpt>
            <trkpt lon="100.957841" lat="12.937158">
                <ele>45.800000</ele>
                <time>2019-05-27T04:55:09Z</time>
            </trkpt>
            <trkpt lon="100.957908" lat="12.937514">
                <ele>46.760000</ele>
                <time>2019-05-27T04:55:26Z</time>
            </trkpt>
            <trkpt lon="100.957972" lat="12.937901">
                <ele>47.720000</ele>
                <time>2019-05-27T04:55:43Z</time>
            </trkpt>
            <trkpt lon="100.958054" lat="12.938342">
                <ele>48.680000</ele>
                <time>2019-05-27T04:56:02Z</time>
            </trkpt>
            <trkpt lon="100.958128" lat="12.938786">
                <ele>50.130000</ele>
                <time>2019-05-27T04:56:21Z</time>
            </trkpt>
            <trkpt lon="100.958227" lat="12.939261">
                <ele>50.610000</ele>
                <time>2019-05-27T04:56:42Z</time>
            </trkpt>
            <trkpt lon="100.958309" lat="12.939691">
                <ele>52.050000</ele>
                <time>2019-05-27T04:57:00Z</time>
            </trkpt>
            <trkpt lon="100.958392" lat="12.940104">
                <ele>53.010000</ele>
                <time>2019-05-27T04:57:17Z</time>
            </trkpt>
            <trkpt lon="100.958465" lat="12.940483">
                <ele>53.970000</ele>
                <time>2019-05-27T04:57:33Z</time>
            </trkpt>
            <trkpt lon="100.958547" lat="12.940741">
                <ele>75.600000</ele>
                <time>2019-05-17T04:33:23Z</time>
            </trkpt>
            <trkpt lon="100.958644" lat="12.940576">
                <ele>75.600000</ele>
                <time>2019-05-17T04:33:37Z</time>
            </trkpt>
            <trkpt lon="100.958655" lat="12.940506">
                <ele>75.120000</ele>
                <time>2019-05-17T04:33:40Z</time>
            </trkpt>
            <trkpt lon="100.958740" lat="12.940050">
                <ele>73.680000</ele>
                <time>2019-05-17T04:33:54Z</time>
            </trkpt>
            <trkpt lon="100.958740" lat="12.940017">
                <ele>73.680000</ele>
                <time>2019-05-17T04:33:55Z</time>
            </trkpt>
            <trkpt lon="100.958997" lat="12.939842">
                <ele>73.200000</ele>
                <time>2019-05-17T04:34:07Z</time>
            </trkpt>
            <trkpt lon="100.959310" lat="12.939715">
                <ele>73.200000</ele>
                <time>2019-05-17T04:34:19Z</time>
            </trkpt>
            <trkpt lon="100.959637" lat="12.939615">
                <ele>73.200000</ele>
                <time>2019-05-17T04:34:33Z</time>
            </trkpt>
            <trkpt lon="100.959794" lat="12.939586">
                <ele>73.200000</ele>
                <time>2019-05-17T04:34:40Z</time>
            </trkpt>
            <trkpt lon="100.959882" lat="12.939535">
                <ele>72.720000</ele>
                <time>2019-05-17T04:34:44Z</time>
            </trkpt>
            <trkpt lon="100.959924" lat="12.939508">
                <ele>72.720000</ele>
                <time>2019-05-17T04:34:46Z</time>
            </trkpt>
            <trkpt lon="100.960136" lat="12.939542">
                <ele>72.240000</ele>
                <time>2019-05-17T04:34:57Z</time>
            </trkpt>
            <trkpt lon="100.960226" lat="12.939778">
                <ele>73.200000</ele>
                <time>2019-05-17T04:35:10Z</time>
            </trkpt>
            <trkpt lon="100.960334" lat="12.939943">
                <ele>73.680000</ele>
                <time>2019-05-17T04:35:23Z</time>
            </trkpt>
            <trkpt lon="100.960346" lat="12.939978">
                <ele>74.160000</ele>
                <time>2019-05-17T04:35:26Z</time>
            </trkpt>
            <trkpt lon="100.960416" lat="12.940050">
                <ele>74.160000</ele>
                <time>2019-05-17T04:35:33Z</time>
            </trkpt>
            <trkpt lon="100.960517" lat="12.939977">
                <ele>73.200000</ele>
                <time>2019-05-17T04:35:41Z</time>
            </trkpt>
            <trkpt lon="100.960657" lat="12.939973">
                <ele>70.310000</ele>
                <time>2019-05-17T04:39:00Z</time>
            </trkpt>
            <trkpt lon="100.960590" lat="12.940138">
                <ele>70.310000</ele>
                <time>2019-05-17T04:39:10Z</time>
            </trkpt>
            <trkpt lon="100.960568" lat="12.940272">
                <ele>71.760000</ele>
                <time>2019-05-17T04:39:18Z</time>
            </trkpt>
            <trkpt lon="100.960548" lat="12.940435">
                <ele>71.760000</ele>
                <time>2019-05-17T04:39:34Z</time>
            </trkpt>
            <trkpt lon="100.960619" lat="12.940470">
                <ele>70.790000</ele>
                <time>2019-05-17T04:40:03Z</time>
            </trkpt>
            <trkpt lon="100.960700" lat="12.940498">
                <ele>70.790000</ele>
                <time>2019-05-17T04:40:08Z</time>
            </trkpt>
            <trkpt lon="100.960945" lat="12.940568">
                <ele>70.310000</ele>
                <time>2019-05-17T04:40:21Z</time>
            </trkpt>
            <trkpt lon="100.960871" lat="12.940557">
                <ele>69.830000</ele>
                <time>2019-05-17T04:40:41Z</time>
            </trkpt>
            <trkpt lon="100.960572" lat="12.940451">
                <ele>70.790000</ele>
                <time>2019-05-17T04:40:56Z</time>
            </trkpt>
            <trkpt lon="100.960527" lat="12.940513">
                <ele>70.790000</ele>
                <time>2019-05-17T04:41:01Z</time>
            </trkpt>
            <trkpt lon="100.960428" lat="12.940800">
                <ele>71.270000</ele>
                <time>2019-05-17T04:41:17Z</time>
            </trkpt>
            <trkpt lon="100.960291" lat="12.941133">
                <ele>71.760000</ele>
                <time>2019-05-17T04:41:35Z</time>
            </trkpt>
            <trkpt lon="100.960092" lat="12.941488">
                <ele>72.240000</ele>
                <time>2019-05-17T04:41:54Z</time>
            </trkpt>
            <trkpt lon="100.959935" lat="12.941781">
                <ele>72.720000</ele>
                <time>2019-05-17T04:42:10Z</time>
            </trkpt>
            <trkpt lon="100.959873" lat="12.942147">
                <ele>73.680000</ele>
                <time>2019-05-17T04:42:28Z</time>
            </trkpt>
            <trkpt lon="100.960110" lat="12.942323">
                <ele>74.160000</ele>
                <time>2019-05-17T04:42:44Z</time>
            </trkpt>
            <trkpt lon="100.960248" lat="12.942561">
                <ele>74.640000</ele>
                <time>2019-05-17T04:42:59Z</time>
            </trkpt>
            <trkpt lon="100.960267" lat="12.942619">
                <ele>74.640000</ele>
                <time>2019-05-17T04:43:02Z</time>
            </trkpt>
            <trkpt lon="100.960389" lat="12.942677">
                <ele>75.120000</ele>
                <time>2019-05-17T04:43:09Z</time>
            </trkpt>
            <trkpt lon="100.960526" lat="12.942774">
                <ele>75.120000</ele>
                <time>2019-05-17T04:43:18Z</time>
            </trkpt>
            <trkpt lon="100.960697" lat="12.943101">
                <ele>75.600000</ele>
                <time>2019-05-17T04:43:37Z</time>
            </trkpt>
            <trkpt lon="100.960699" lat="12.943140">
                <ele>75.600000</ele>
                <time>2019-05-17T04:43:39Z</time>
            </trkpt>
            <trkpt lon="100.960663" lat="12.943199">
                <ele>75.600000</ele>
                <time>2019-05-17T04:43:43Z</time>
            </trkpt>
            <trkpt lon="100.960661" lat="12.943553">
                <ele>76.080000</ele>
                <time>2019-05-17T04:44:00Z</time>
            </trkpt>
            <trkpt lon="100.960606" lat="12.943786">
                <ele>75.600000</ele>
                <time>2019-05-17T04:44:11Z</time>
            </trkpt>
            <trkpt lon="100.960776" lat="12.943866">
                <ele>76.080000</ele>
                <time>2019-05-17T04:44:21Z</time>
            </trkpt>
            <trkpt lon="100.960812" lat="12.943987">
                <ele>76.080000</ele>
                <time>2019-05-17T04:44:30Z</time>
            </trkpt>
            <trkpt lon="100.961029" lat="12.944049">
                <ele>76.080000</ele>
                <time>2019-05-17T04:44:44Z</time>
            </trkpt>
            <trkpt lon="100.961315" lat="12.944103">
                <ele>76.080000</ele>
                <time>2019-05-17T04:44:57Z</time>
            </trkpt>
            <trkpt lon="100.961423" lat="12.944114">
                <ele>76.080000</ele>
                <time>2019-05-17T04:45:02Z</time>
            </trkpt>
            <trkpt lon="100.961531" lat="12.944146">
                <ele>76.080000</ele>
                <time>2019-05-17T04:45:07Z</time>
            </trkpt>
            <trkpt lon="100.961626" lat="12.944137">
                <ele>75.600000</ele>
                <time>2019-05-17T04:45:11Z</time>
            </trkpt>
            <trkpt lon="100.961667" lat="12.944141">
                <ele>75.600000</ele>
                <time>2019-05-17T04:45:13Z</time>
            </trkpt>
            <trkpt lon="100.961794" lat="12.943891">
                <ele>73.680000</ele>
                <time>2019-05-17T04:45:24Z</time>
            </trkpt>
            <trkpt lon="100.961958" lat="12.943786">
                <ele>73.680000</ele>
                <time>2019-05-17T04:45:35Z</time>
            </trkpt>
            <trkpt lon="100.962006" lat="12.943823">
                <ele>73.680000</ele>
                <time>2019-05-17T04:45:40Z</time>
            </trkpt>
            <trkpt lon="100.961937" lat="12.944049">
                <ele>74.160000</ele>
                <time>2019-05-17T04:45:52Z</time>
            </trkpt>
            <trkpt lon="100.961951" lat="12.944100">
                <ele>74.160000</ele>
                <time>2019-05-17T04:45:55Z</time>
            </trkpt>
            <trkpt lon="100.962019" lat="12.944046">
                <ele>73.680000</ele>
                <time>2019-05-17T04:46:03Z</time>
            </trkpt>
            <trkpt lon="100.962101" lat="12.943854">
                <ele>73.680000</ele>
                <time>2019-05-17T04:46:14Z</time>
            </trkpt>
            <trkpt lon="100.962155" lat="12.943866">
                <ele>73.200000</ele>
                <time>2019-05-17T04:46:18Z</time>
            </trkpt>
            <trkpt lon="100.962152" lat="12.943990">
                <ele>73.680000</ele>
                <time>2019-05-17T04:46:26Z</time>
            </trkpt>
            <trkpt lon="100.962136" lat="12.944124">
                <ele>73.200000</ele>
                <time>2019-05-17T04:46:35Z</time>
            </trkpt>
            <trkpt lon="100.962001" lat="12.944276">
                <ele>74.640000</ele>
                <time>2019-05-17T04:46:50Z</time>
            </trkpt>
            <trkpt lon="100.962050" lat="12.944347">
                <ele>74.640000</ele>
                <time>2019-05-17T04:46:55Z</time>
            </trkpt>
            <trkpt lon="100.962063" lat="12.944379">
                <ele>74.160000</ele>
                <time>2019-05-17T04:46:57Z</time>
            </trkpt>
            <trkpt lon="100.962028" lat="12.944466">
                <ele>74.640000</ele>
                <time>2019-05-17T04:47:02Z</time>
            </trkpt>
            <trkpt lon="100.961789" lat="12.944442">
                <ele>74.160000</ele>
                <time>2019-05-17T04:47:12Z</time>
            </trkpt>
            <trkpt lon="100.961542" lat="12.944585">
                <ele>74.160000</ele>
                <time>2019-05-17T04:47:26Z</time>
            </trkpt>
            <trkpt lon="100.961505" lat="12.944575">
                <ele>74.640000</ele>
                <time>2019-05-17T04:47:28Z</time>
            </trkpt>
            <trkpt lon="100.961506" lat="12.944734">
                <ele>74.640000</ele>
                <time>2019-05-17T04:47:40Z</time>
            </trkpt>
            <trkpt lon="100.961595" lat="12.944701">
                <ele>74.640000</ele>
                <time>2019-05-17T04:47:45Z</time>
            </trkpt>
            <trkpt lon="100.961786" lat="12.944633">
                <ele>74.160000</ele>
                <time>2019-05-17T04:47:54Z</time>
            </trkpt>
            <trkpt lon="100.961986" lat="12.944786">
                <ele>74.640000</ele>
                <time>2019-05-17T04:48:09Z</time>
            </trkpt>
            <trkpt lon="100.961940" lat="12.944864">
                <ele>75.120000</ele>
                <time>2019-05-17T04:48:16Z</time>
            </trkpt>
            <trkpt lon="100.961752" lat="12.944818">
                <ele>74.640000</ele>
                <time>2019-05-17T04:48:26Z</time>
            </trkpt>
            <trkpt lon="100.961666" lat="12.944884">
                <ele>74.640000</ele>
                <time>2019-05-17T04:48:31Z</time>
            </trkpt>
            <trkpt lon="100.961554" lat="12.944991">
                <ele>74.160000</ele>
                <time>2019-05-17T04:48:38Z</time>
            </trkpt>
            <trkpt lon="100.961458" lat="12.944997">
                <ele>74.640000</ele>
                <time>2019-05-17T04:48:42Z</time>
            </trkpt>
            <trkpt lon="100.961145" lat="12.944843">
                <ele>74.160000</ele>
                <time>2019-05-17T04:48:57Z</time>
            </trkpt>
            <trkpt lon="100.961084" lat="12.944848">
                <ele>73.680000</ele>
                <time>2019-05-17T04:49:00Z</time>
            </trkpt>
            <trkpt lon="100.961021" lat="12.944923">
                <ele>73.680000</ele>
                <time>2019-05-17T04:49:05Z</time>
            </trkpt>
            <trkpt lon="100.961072" lat="12.945015">
                <ele>73.680000</ele>
                <time>2019-05-17T04:49:11Z</time>
            </trkpt>
            <trkpt lon="100.961307" lat="12.945164">
                <ele>74.160000</ele>
                <time>2019-05-17T04:49:27Z</time>
            </trkpt>
            <trkpt lon="100.961315" lat="12.945200">
                <ele>74.160000</ele>
                <time>2019-05-17T04:49:29Z</time>
            </trkpt>
            <trkpt lon="100.961533" lat="12.945196">
                <ele>73.680000</ele>
                <time>2019-05-17T04:49:42Z</time>
            </trkpt>
            <trkpt lon="100.961551" lat="12.945169">
                <ele>74.160000</ele>
                <time>2019-05-17T04:49:44Z</time>
            </trkpt>
            <trkpt lon="100.961593" lat="12.945059">
                <ele>74.160000</ele>
                <time>2019-05-17T04:49:50Z</time>
            </trkpt>
            <trkpt lon="100.961755" lat="12.945057">
                <ele>74.160000</ele>
                <time>2019-05-17T04:49:59Z</time>
            </trkpt>
            <trkpt lon="100.961796" lat="12.945086">
                <ele>73.680000</ele>
                <time>2019-05-17T04:50:02Z</time>
            </trkpt>
            <trkpt lon="100.961917" lat="12.945147">
                <ele>73.200000</ele>
                <time>2019-05-17T04:50:15Z</time>
            </trkpt>
            <trkpt lon="100.962087" lat="12.945190">
                <ele>74.160000</ele>
                <time>2019-05-17T04:50:45Z</time>
            </trkpt>
            <trkpt lon="100.962059" lat="12.945292">
                <ele>73.680000</ele>
                <time>2019-05-17T04:50:55Z</time>
            </trkpt>
            <trkpt lon="100.961987" lat="12.945256">
                <ele>74.160000</ele>
                <time>2019-05-17T04:51:00Z</time>
            </trkpt>
            <trkpt lon="100.961895" lat="12.945412">
                <ele>73.680000</ele>
                <time>2019-05-17T04:51:13Z</time>
            </trkpt>
            <trkpt lon="100.962079" lat="12.945634">
                <ele>74.160000</ele>
                <time>2019-05-17T04:51:29Z</time>
            </trkpt>
            <trkpt lon="100.962064" lat="12.945700">
                <ele>74.640000</ele>
                <time>2019-05-17T04:51:33Z</time>
            </trkpt>
            <trkpt lon="100.962011" lat="12.945769">
                <ele>74.160000</ele>
                <time>2019-05-17T04:51:37Z</time>
            </trkpt>
            <trkpt lon="100.961898" lat="12.945794">
                <ele>74.160000</ele>
                <time>2019-05-17T04:51:44Z</time>
            </trkpt>
            <trkpt lon="100.961742" lat="12.945656">
                <ele>73.200000</ele>
                <time>2019-05-17T04:51:58Z</time>
            </trkpt>
            <trkpt lon="100.961468" lat="12.945575">
                <ele>72.720000</ele>
                <time>2019-05-17T04:52:13Z</time>
            </trkpt>
            <trkpt lon="100.961298" lat="12.945513">
                <ele>72.240000</ele>
                <time>2019-05-17T04:52:22Z</time>
            </trkpt>
            <trkpt lon="100.961209" lat="12.945456">
                <ele>71.760000</ele>
                <time>2019-05-17T04:52:40Z</time>
            </trkpt>
            <trkpt lon="100.961152" lat="12.945388">
                <ele>71.760000</ele>
                <time>2019-05-17T04:52:52Z</time>
            </trkpt>
            <trkpt lon="100.961069" lat="12.945266">
                <ele>71.760000</ele>
                <time>2019-05-17T04:53:00Z</time>
            </trkpt>
            <trkpt lon="100.960813" lat="12.945237">
                <ele>70.790000</ele>
                <time>2019-05-17T04:53:11Z</time>
            </trkpt>
            <trkpt lon="100.960668" lat="12.945168">
                <ele>71.270000</ele>
                <time>2019-05-17T04:53:20Z</time>
            </trkpt>
            <trkpt lon="100.960573" lat="12.945249">
                <ele>71.270000</ele>
                <time>2019-05-17T04:53:27Z</time>
            </trkpt>
            <trkpt lon="100.960544" lat="12.945368">
                <ele>70.790000</ele>
                <time>2019-05-17T04:53:37Z</time>
            </trkpt>
            <trkpt lon="100.960807" lat="12.945496">
                <ele>71.270000</ele>
                <time>2019-05-17T04:53:55Z</time>
            </trkpt>
            <trkpt lon="100.961114" lat="12.945650">
                <ele>71.760000</ele>
                <time>2019-05-17T04:54:11Z</time>
            </trkpt>
            <trkpt lon="100.961397" lat="12.945792">
                <ele>72.240000</ele>
                <time>2019-05-17T04:54:26Z</time>
            </trkpt>
            <trkpt lon="100.961691" lat="12.945930">
                <ele>72.240000</ele>
                <time>2019-05-17T04:54:42Z</time>
            </trkpt>
            <trkpt lon="100.962007" lat="12.946088">
                <ele>73.200000</ele>
                <time>2019-05-17T04:54:59Z</time>
            </trkpt>
            <trkpt lon="100.962109" lat="12.946154">
                <ele>73.200000</ele>
                <time>2019-05-17T04:55:06Z</time>
            </trkpt>
            <trkpt lon="100.962135" lat="12.946198">
                <ele>73.200000</ele>
                <time>2019-05-17T04:55:09Z</time>
            </trkpt>
            <trkpt lon="100.962177" lat="12.946243">
                <ele>73.680000</ele>
                <time>2019-05-17T04:55:12Z</time>
            </trkpt>
            <trkpt lon="100.962221" lat="12.946294">
                <ele>74.640000</ele>
                <time>2019-05-17T04:55:16Z</time>
            </trkpt>
            <trkpt lon="100.962255" lat="12.946309">
                <ele>74.640000</ele>
                <time>2019-05-17T04:55:18Z</time>
            </trkpt>
            <trkpt lon="100.962547" lat="12.946327">
                <ele>74.640000</ele>
                <time>2019-05-17T04:55:31Z</time>
            </trkpt>
            <trkpt lon="100.962940" lat="12.946509">
                <ele>75.120000</ele>
                <time>2019-05-17T04:55:52Z</time>
            </trkpt>
            <trkpt lon="100.963219" lat="12.946704">
                <ele>75.600000</ele>
                <time>2019-05-17T04:56:08Z</time>
            </trkpt>
            <trkpt lon="100.963444" lat="12.946830">
                <ele>77.040000</ele>
                <time>2019-05-17T04:56:24Z</time>
            </trkpt>
            <trkpt lon="100.963664" lat="12.946842">
                <ele>77.520000</ele>
                <time>2019-05-17T04:56:35Z</time>
            </trkpt>
            <trkpt lon="100.963904" lat="12.946965">
                <ele>78.480000</ele>
                <time>2019-05-17T04:57:52Z</time>
            </trkpt>
            <trkpt lon="100.964266" lat="12.947141">
                <ele>79.450000</ele>
                <time>2019-05-17T04:58:13Z</time>
            </trkpt>
            <trkpt lon="100.964567" lat="12.947279">
                <ele>79.930000</ele>
                <time>2019-05-17T04:58:30Z</time>
            </trkpt>
            <trkpt lon="100.964868" lat="12.947267">
                <ele>78.480000</ele>
                <time>2019-05-17T04:58:46Z</time>
            </trkpt>
            <trkpt lon="100.964951" lat="12.947119">
                <ele>76.560000</ele>
                <time>2019-05-17T04:58:50Z</time>
            </trkpt>
            <trkpt lon="100.965096" lat="12.946931">
                <ele>74.640000</ele>
                <time>2019-05-17T04:59:02Z</time>
            </trkpt>
            <trkpt lon="100.965245" lat="12.946778">
                <ele>73.200000</ele>
                <time>2019-05-17T04:59:11Z</time>
            </trkpt>
            <trkpt lon="100.965296" lat="12.946641">
                <ele>71.760000</ele>
                <time>2019-05-17T04:59:16Z</time>
            </trkpt>
            <trkpt lon="100.965421" lat="12.946427">
                <ele>71.270000</ele>
                <time>2019-05-17T04:59:22Z</time>
            </trkpt>
            <trkpt lon="100.965524" lat="12.946130">
                <ele>69.830000</ele>
                <time>2019-05-17T04:59:30Z</time>
            </trkpt>
            <trkpt lon="100.965571" lat="12.946012">
                <ele>69.350000</ele>
                <time>2019-05-17T04:59:34Z</time>
            </trkpt>
            <trkpt lon="100.965674" lat="12.945864">
                <ele>69.350000</ele>
                <time>2019-05-17T04:59:41Z</time>
            </trkpt>
            <trkpt lon="100.965679" lat="12.945782">
                <ele>70.310000</ele>
                <time>2019-05-17T04:59:45Z</time>
            </trkpt>
            <trkpt lon="100.965802" lat="12.945609">
                <ele>69.830000</ele>
                <time>2019-05-17T04:59:57Z</time>
            </trkpt>
            <trkpt lon="100.965861" lat="12.945626">
                <ele>69.350000</ele>
                <time>2019-05-17T05:00:00Z</time>
            </trkpt>
            <trkpt lon="100.965923" lat="12.945615">
                <ele>67.910000</ele>
                <time>2019-05-17T05:00:17Z</time>
            </trkpt>
            <trkpt lon="100.965979" lat="12.945592">
                <ele>68.390000</ele>
                <time>2019-05-17T05:00:42Z</time>
            </trkpt>
            <trkpt lon="100.966005" lat="12.945520">
                <ele>67.430000</ele>
                <time>2019-05-17T05:00:46Z</time>
            </trkpt>
            <trkpt lon="100.966055" lat="12.945355">
                <ele>65.990000</ele>
                <time>2019-05-17T05:00:52Z</time>
            </trkpt>
            <trkpt lon="100.966115" lat="12.945023">
                <ele>65.030000</ele>
                <time>2019-05-17T05:01:04Z</time>
            </trkpt>
            <trkpt lon="100.966050" lat="12.944685">
                <ele>62.620000</ele>
                <time>2019-05-17T05:01:13Z</time>
            </trkpt>
            <trkpt lon="100.966083" lat="12.944715">
                <ele>61.180000</ele>
                <time>2019-05-17T05:05:50Z</time>
            </trkpt>
            <trkpt lon="100.966108" lat="12.944988">
                <ele>62.140000</ele>
                <time>2019-05-17T05:06:05Z</time>
            </trkpt>
            <trkpt lon="100.966075" lat="12.945255">
                <ele>63.100000</ele>
                <time>2019-05-17T05:06:22Z</time>
            </trkpt>
            <trkpt lon="100.966110" lat="12.945340">
                <ele>63.580000</ele>
                <time>2019-05-17T05:06:36Z</time>
            </trkpt>
            <trkpt lon="100.966129" lat="12.945384">
                <ele>63.100000</ele>
                <time>2019-05-17T05:07:12Z</time>
            </trkpt>
            <trkpt lon="100.966184" lat="12.945405">
                <ele>62.620000</ele>
                <time>2019-05-17T05:07:30Z</time>
            </trkpt>
            <trkpt lon="100.966237" lat="12.945423">
                <ele>62.140000</ele>
                <time>2019-05-17T05:07:34Z</time>
            </trkpt>
            <trkpt lon="100.966287" lat="12.945475">
                <ele>62.140000</ele>
                <time>2019-05-17T05:07:37Z</time>
            </trkpt>
            <trkpt lon="100.966362" lat="12.945585">
                <ele>62.140000</ele>
                <time>2019-05-17T05:07:43Z</time>
            </trkpt>
            <trkpt lon="100.966472" lat="12.945688">
                <ele>61.660000</ele>
                <time>2019-05-17T05:07:49Z</time>
            </trkpt>
            <trkpt lon="100.966569" lat="12.945711">
                <ele>61.660000</ele>
                <time>2019-05-17T05:07:53Z</time>
            </trkpt>
            <trkpt lon="100.966828" lat="12.945426">
                <ele>59.260000</ele>
                <time>2019-05-17T05:08:07Z</time>
            </trkpt>
            <trkpt lon="100.966859" lat="12.945379">
                <ele>59.260000</ele>
                <time>2019-05-17T05:08:09Z</time>
            </trkpt>
            <trkpt lon="100.966893" lat="12.945360">
                <ele>59.260000</ele>
                <time>2019-05-17T05:08:11Z</time>
            </trkpt>
            <trkpt lon="100.966947" lat="12.945364">
                <ele>58.780000</ele>
                <time>2019-05-17T05:08:14Z</time>
            </trkpt>
            <trkpt lon="100.966958" lat="12.945427">
                <ele>58.780000</ele>
                <time>2019-05-17T05:08:29Z</time>
            </trkpt>
            <trkpt lon="100.966889" lat="12.945599">
                <ele>59.260000</ele>
                <time>2019-05-17T05:08:40Z</time>
            </trkpt>
            <trkpt lon="100.967011" lat="12.945831">
                <ele>59.260000</ele>
                <time>2019-05-17T05:08:50Z</time>
            </trkpt>
            <trkpt lon="100.967143" lat="12.946168">
                <ele>60.220000</ele>
                <time>2019-05-17T05:09:06Z</time>
            </trkpt>
            <trkpt lon="100.967131" lat="12.946284">
                <ele>60.220000</ele>
                <time>2019-05-17T05:09:12Z</time>
            </trkpt>
            <trkpt lon="100.967175" lat="12.946407">
                <ele>59.740000</ele>
                <time>2019-05-17T05:09:18Z</time>
            </trkpt>
            <trkpt lon="100.967196" lat="12.946758">
                <ele>60.700000</ele>
                <time>2019-05-17T05:09:35Z</time>
            </trkpt>
            <trkpt lon="100.967005" lat="12.946949">
                <ele>62.140000</ele>
                <time>2019-05-17T05:09:52Z</time>
            </trkpt>
            <trkpt lon="100.966912" lat="12.947187">
                <ele>63.100000</ele>
                <time>2019-05-17T05:10:08Z</time>
            </trkpt>
            <trkpt lon="100.966784" lat="12.947508">
                <ele>64.070000</ele>
                <time>2019-05-17T05:10:27Z</time>
            </trkpt>
            <trkpt lon="100.966776" lat="12.947860">
                <ele>64.550000</ele>
                <time>2019-05-17T05:10:46Z</time>
            </trkpt>
            <trkpt lon="100.966777" lat="12.948064">
                <ele>65.510000</ele>
                <time>2019-05-17T05:11:00Z</time>
            </trkpt>
            <trkpt lon="100.966810" lat="12.948078">
                <ele>65.510000</ele>
                <time>2019-05-17T05:12:05Z</time>
            </trkpt>
            <trkpt lon="100.966871" lat="12.948171">
                <ele>65.030000</ele>
                <time>2019-05-17T05:12:12Z</time>
            </trkpt>
            <trkpt lon="100.967131" lat="12.948491">
                <ele>65.030000</ele>
                <time>2019-05-17T05:12:29Z</time>
            </trkpt>
            <trkpt lon="100.967209" lat="12.948544">
                <ele>65.030000</ele>
                <time>2019-05-17T05:12:41Z</time>
            </trkpt>
            <trkpt lon="100.967247" lat="12.948537">
                <ele>64.550000</ele>
                <time>2019-05-17T05:13:00Z</time>
            </trkpt>
            <trkpt lon="100.967344" lat="12.948577">
                <ele>64.070000</ele>
                <time>2019-05-17T05:13:06Z</time>
            </trkpt>
            <trkpt lon="100.967832" lat="12.948795">
                <ele>63.100000</ele>
                <time>2019-05-17T05:13:21Z</time>
            </trkpt>
            <trkpt lon="100.968300" lat="12.949012">
                <ele>61.180000</ele>
                <time>2019-05-17T05:13:31Z</time>
            </trkpt>
            <trkpt lon="100.968756" lat="12.949214">
                <ele>59.260000</ele>
                <time>2019-05-17T05:13:40Z</time>
            </trkpt>
            <trkpt lon="100.968842" lat="12.949240">
                <ele>59.260000</ele>
                <time>2019-05-17T05:13:42Z</time>
            </trkpt>
            <trkpt lon="100.968881" lat="12.949258">
                <ele>59.260000</ele>
                <time>2019-05-17T05:13:43Z</time>
            </trkpt>
            <trkpt lon="100.968918" lat="12.949283">
                <ele>58.780000</ele>
                <time>2019-05-17T05:13:44Z</time>
            </trkpt>
            <trkpt lon="100.968954" lat="12.949305">
                <ele>58.300000</ele>
                <time>2019-05-17T05:13:45Z</time>
            </trkpt>
            <trkpt lon="100.968991" lat="12.949323">
                <ele>58.780000</ele>
                <time>2019-05-17T05:13:46Z</time>
            </trkpt>
            <trkpt lon="100.969030" lat="12.949335">
                <ele>58.300000</ele>
                <time>2019-05-17T05:13:47Z</time>
            </trkpt>
            <trkpt lon="100.969069" lat="12.949344">
                <ele>58.300000</ele>
                <time>2019-05-17T05:13:48Z</time>
            </trkpt>
            <trkpt lon="100.969237" lat="12.949399">
                <ele>57.340000</ele>
                <time>2019-05-17T05:13:52Z</time>
            </trkpt>
            <trkpt lon="100.969789" lat="12.949714">
                <ele>56.860000</ele>
                <time>2019-05-17T05:14:09Z</time>
            </trkpt>
            <trkpt lon="100.970345" lat="12.949981">
                <ele>56.370000</ele>
                <time>2019-05-17T05:14:26Z</time>
            </trkpt>
            <trkpt lon="100.970885" lat="12.950237">
                <ele>56.370000</ele>
                <time>2019-05-17T05:14:43Z</time>
            </trkpt>
            <trkpt lon="100.971455" lat="12.950500">
                <ele>55.890000</ele>
                <time>2019-05-17T05:15:02Z</time>
            </trkpt>
            <trkpt lon="100.971904" lat="12.950706">
                <ele>55.890000</ele>
                <time>2019-05-17T05:15:19Z</time>
            </trkpt>
            <trkpt lon="100.972305" lat="12.950737">
                <ele>55.890000</ele>
                <time>2019-05-17T05:15:35Z</time>
            </trkpt>
            <trkpt lon="100.972508" lat="12.950413">
                <ele>55.410000</ele>
                <time>2019-05-17T05:15:49Z</time>
            </trkpt>
            <trkpt lon="100.972382" lat="12.950094">
                <ele>54.930000</ele>
                <time>2019-05-17T05:16:01Z</time>
            </trkpt>
            <trkpt lon="100.972452" lat="12.950022">
                <ele>54.930000</ele>
                <time>2019-05-17T05:16:13Z</time>
            </trkpt>
            <trkpt lon="100.972400" lat="12.950114">
                <ele>54.450000</ele>
                <time>2019-05-17T05:16:38Z</time>
            </trkpt>
            <trkpt lon="100.972623" lat="12.950542">
                <ele>55.410000</ele>
                <time>2019-05-17T05:16:59Z</time>
            </trkpt>
            <trkpt lon="100.972828" lat="12.950905">
                <ele>55.410000</ele>
                <time>2019-05-17T05:17:18Z</time>
            </trkpt>
            <trkpt lon="100.973005" lat="12.951132">
                <ele>55.890000</ele>
                <time>2019-05-17T05:17:33Z</time>
            </trkpt>
            <trkpt lon="100.973238" lat="12.951263">
                <ele>55.410000</ele>
                <time>2019-05-17T05:17:48Z</time>
            </trkpt>
            <trkpt lon="100.973300" lat="12.950909">
                <ele>55.410000</ele>
                <time>2019-05-17T05:18:06Z</time>
            </trkpt>
            <trkpt lon="100.973080" lat="12.950590">
                <ele>54.930000</ele>
                <time>2019-05-17T05:18:22Z</time>
            </trkpt>
            <trkpt lon="100.972915" lat="12.950512">
                <ele>54.930000</ele>
                <time>2019-05-17T05:18:29Z</time>
            </trkpt>
            <trkpt lon="100.972748" lat="12.950141">
                <ele>54.450000</ele>
                <time>2019-05-17T05:18:46Z</time>
            </trkpt>
            <trkpt lon="100.972899" lat="12.949822">
                <ele>53.970000</ele>
                <time>2019-05-17T05:19:01Z</time>
            </trkpt>
            <trkpt lon="100.973322" lat="12.949691">
                <ele>53.970000</ele>
                <time>2019-05-17T05:19:20Z</time>
            </trkpt>
            <trkpt lon="100.973673" lat="12.949748">
                <ele>54.930000</ele>
                <time>2019-05-17T05:19:37Z</time>
            </trkpt>
            <trkpt lon="100.973807" lat="12.949767">
                <ele>54.930000</ele>
                <time>2019-05-17T05:19:51Z</time>
            </trkpt>
            <trkpt lon="100.973893" lat="12.949782">
                <ele>54.930000</ele>
                <time>2019-05-17T05:20:06Z</time>
            </trkpt>
            <trkpt lon="100.973963" lat="12.949811">
                <ele>55.410000</ele>
                <time>2019-05-17T05:20:40Z</time>
            </trkpt>
            <trkpt lon="100.974031" lat="12.949866">
                <ele>55.410000</ele>
                <time>2019-05-17T05:20:51Z</time>
            </trkpt>
            <trkpt lon="100.974105" lat="12.949884">
                <ele>55.410000</ele>
                <time>2019-05-17T05:20:55Z</time>
            </trkpt>
            <trkpt lon="100.974314" lat="12.949882">
                <ele>55.410000</ele>
                <time>2019-05-17T05:21:04Z</time>
            </trkpt>
            <trkpt lon="100.974370" lat="12.949803">
                <ele>55.890000</ele>
                <time>2019-05-17T05:21:09Z</time>
            </trkpt>
            <trkpt lon="100.974379" lat="12.949662">
                <ele>55.890000</ele>
                <time>2019-05-17T05:21:15Z</time>
            </trkpt>
            <trkpt lon="100.974305" lat="12.949610">
                <ele>55.410000</ele>
                <time>2019-05-17T05:21:19Z</time>
            </trkpt>
            <trkpt lon="100.974156" lat="12.949571">
                <ele>55.890000</ele>
                <time>2019-05-17T05:21:24Z</time>
            </trkpt>
            <trkpt lon="100.974103" lat="12.949011">
                <ele>55.890000</ele>
                <time>2019-05-17T05:21:41Z</time>
            </trkpt>
            <trkpt lon="100.974091" lat="12.948966">
                <ele>55.890000</ele>
                <time>2019-05-17T05:21:43Z</time>
            </trkpt>
            <trkpt lon="100.974033" lat="12.948918">
                <ele>55.890000</ele>
                <time>2019-05-17T05:21:48Z</time>
            </trkpt>
            <trkpt lon="100.973901" lat="12.949185">
                <ele>54.930000</ele>
                <time>2019-05-17T05:22:01Z</time>
            </trkpt>
            <trkpt lon="100.973886" lat="12.949213">
                <ele>54.930000</ele>
                <time>2019-05-17T05:22:02Z</time>
            </trkpt>
            <trkpt lon="100.973432" lat="12.949411">
                <ele>54.930000</ele>
                <time>2019-05-17T05:22:18Z</time>
            </trkpt>
            <trkpt lon="100.973001" lat="12.949101">
                <ele>55.410000</ele>
                <time>2019-05-17T05:22:35Z</time>
            </trkpt>
            <trkpt lon="100.972882" lat="12.948531">
                <ele>54.930000</ele>
                <time>2019-05-17T05:22:51Z</time>
            </trkpt>
            <trkpt lon="100.972902" lat="12.948296">
                <ele>53.970000</ele>
                <time>2019-05-17T05:22:57Z</time>
            </trkpt>
            <trkpt lon="100.972635" lat="12.948194">
                <ele>55.410000</ele>
                <time>2019-05-17T05:23:07Z</time>
            </trkpt>
            <trkpt lon="100.972529" lat="12.948094">
                <ele>55.410000</ele>
                <time>2019-05-17T05:23:18Z</time>
            </trkpt>
            <trkpt lon="100.972555" lat="12.948069">
                <ele>54.930000</ele>
                <time>2019-05-17T05:24:05Z</time>
            </trkpt>
            <trkpt lon="100.972885" lat="12.948060">
                <ele>54.930000</ele>
                <time>2019-05-17T05:24:19Z</time>
            </trkpt>
            <trkpt lon="100.972915" lat="12.948066">
                <ele>54.930000</ele>
                <time>2019-05-17T05:24:20Z</time>
            </trkpt>
            <trkpt lon="100.973023" lat="12.947971">
                <ele>54.930000</ele>
                <time>2019-05-17T05:24:25Z</time>
            </trkpt>
            <trkpt lon="100.973044" lat="12.947817">
                <ele>54.450000</ele>
                <time>2019-05-17T05:24:29Z</time>
            </trkpt>
            <trkpt lon="100.973035" lat="12.947676">
                <ele>53.970000</ele>
                <time>2019-05-17T05:24:32Z</time>
            </trkpt>
            <trkpt lon="100.973024" lat="12.947628">
                <ele>53.490000</ele>
                <time>2019-05-17T05:24:33Z</time>
            </trkpt>
            <trkpt lon="100.972992" lat="12.946957">
                <ele>53.490000</ele>
                <time>2019-05-17T05:24:49Z</time>
            </trkpt>
            <trkpt lon="100.972928" lat="12.946769">
                <ele>53.490000</ele>
                <time>2019-05-17T05:24:54Z</time>
            </trkpt>
            <trkpt lon="100.972926" lat="12.946730">
                <ele>53.490000</ele>
                <time>2019-05-17T05:24:55Z</time>
            </trkpt>
            <trkpt lon="100.972930" lat="12.946689">
                <ele>53.490000</ele>
                <time>2019-05-17T05:24:56Z</time>
            </trkpt>
            <trkpt lon="100.972942" lat="12.946650">
                <ele>53.010000</ele>
                <time>2019-05-17T05:24:57Z</time>
            </trkpt>
            <trkpt lon="100.972960" lat="12.946614">
                <ele>53.970000</ele>
                <time>2019-05-17T05:24:58Z</time>
            </trkpt>
            <trkpt lon="100.972984" lat="12.946581">
                <ele>53.490000</ele>
                <time>2019-05-17T05:24:59Z</time>
            </trkpt>
            <trkpt lon="100.973014" lat="12.946554">
                <ele>53.490000</ele>
                <time>2019-05-17T05:25:00Z</time>
            </trkpt>
            <trkpt lon="100.973204" lat="12.946523">
                <ele>54.450000</ele>
                <time>2019-05-17T05:25:05Z</time>
            </trkpt>
            <trkpt lon="100.974023" lat="12.946728">
                <ele>54.930000</ele>
                <time>2019-05-17T05:25:27Z</time>
            </trkpt>
            <trkpt lon="100.974282" lat="12.946476">
                <ele>55.890000</ele>
                <time>2019-05-17T05:25:38Z</time>
            </trkpt>
            <trkpt lon="100.973974" lat="12.946035">
                <ele>55.410000</ele>
                <time>2019-05-17T05:25:53Z</time>
            </trkpt>
            <trkpt lon="100.973538" lat="12.945338">
                <ele>55.410000</ele>
                <time>2019-05-17T05:26:15Z</time>
            </trkpt>
            <trkpt lon="100.973108" lat="12.944739">
                <ele>55.410000</ele>
                <time>2019-05-17T05:26:35Z</time>
            </trkpt>
            <trkpt lon="100.973042" lat="12.944641">
                <ele>55.410000</ele>
                <time>2019-05-17T05:26:38Z</time>
            </trkpt>
            <trkpt lon="100.972996" lat="12.944409">
                <ele>55.410000</ele>
                <time>2019-05-17T05:26:46Z</time>
            </trkpt>
            <trkpt lon="100.972877" lat="12.944077">
                <ele>55.410000</ele>
                <time>2019-05-17T05:27:01Z</time>
            </trkpt>
            <trkpt lon="100.972800" lat="12.943943">
                <ele>55.410000</ele>
                <time>2019-05-17T05:27:07Z</time>
            </trkpt>
            <trkpt lon="100.972852" lat="12.943871">
                <ele>55.890000</ele>
                <time>2019-05-17T05:27:11Z</time>
            </trkpt>
            <trkpt lon="100.972890" lat="12.943853">
                <ele>55.410000</ele>
                <time>2019-05-17T05:27:13Z</time>
            </trkpt>
            <trkpt lon="100.972916" lat="12.943785">
                <ele>54.930000</ele>
                <time>2019-05-17T05:27:26Z</time>
            </trkpt>
            <trkpt lon="100.972903" lat="12.943760">
                <ele>54.930000</ele>
                <time>2019-05-17T05:28:06Z</time>
            </trkpt>
            <trkpt lon="100.972875" lat="12.943750">
                <ele>54.930000</ele>
                <time>2019-05-17T05:28:46Z</time>
            </trkpt>
            <trkpt lon="100.972847" lat="12.943744">
                <ele>55.410000</ele>
                <time>2019-05-17T05:30:44Z</time>
            </trkpt>
            <trkpt lon="100.972813" lat="12.943755">
                <ele>55.410000</ele>
                <time>2019-05-17T05:31:48Z</time>
            </trkpt>
            <trkpt lon="100.972844" lat="12.943787">
                <ele>56.370000</ele>
                <time>2019-05-17T05:34:37Z</time>
            </trkpt>
            <trkpt lon="100.972827" lat="12.943846">
                <ele>55.890000</ele>
                <time>2019-05-17T05:34:52Z</time>
            </trkpt>
            <trkpt lon="100.972795" lat="12.943964">
                <ele>56.860000</ele>
                <time>2019-05-17T05:35:06Z</time>
            </trkpt>
            <trkpt lon="100.972780" lat="12.944000">
                <ele>56.370000</ele>
                <time>2019-05-17T05:35:08Z</time>
            </trkpt>
            <trkpt lon="100.972708" lat="12.944017">
                <ele>56.370000</ele>
                <time>2019-05-17T05:35:12Z</time>
            </trkpt>
            <trkpt lon="100.972646" lat="12.944032">
                <ele>55.890000</ele>
                <time>2019-05-17T05:36:11Z</time>
            </trkpt>
            <trkpt lon="100.972397" lat="12.943747">
                <ele>56.370000</ele>
                <time>2019-05-17T05:36:34Z</time>
            </trkpt>
            <trkpt lon="100.972345" lat="12.943252">
                <ele>56.370000</ele>
                <time>2019-05-17T05:36:53Z</time>
            </trkpt>
            <trkpt lon="100.972483" lat="12.942679">
                <ele>56.370000</ele>
                <time>2019-05-17T05:37:14Z</time>
            </trkpt>
            <trkpt lon="100.972139" lat="12.942586">
                <ele>56.370000</ele>
                <time>2019-05-17T05:37:29Z</time>
            </trkpt>
            <trkpt lon="100.971577" lat="12.942597">
                <ele>55.890000</ele>
                <time>2019-05-17T05:37:49Z</time>
            </trkpt>
            <trkpt lon="100.971521" lat="12.942470">
                <ele>55.890000</ele>
                <time>2019-05-17T05:37:55Z</time>
            </trkpt>
            <trkpt lon="100.971590" lat="12.942070">
                <ele>56.370000</ele>
                <time>2019-05-17T05:38:10Z</time>
            </trkpt>
            <trkpt lon="100.971548" lat="12.941926">
                <ele>56.370000</ele>
                <time>2019-05-17T05:38:16Z</time>
            </trkpt>
            <trkpt lon="100.971643" lat="12.941452">
                <ele>55.890000</ele>
                <time>2019-05-17T05:38:34Z</time>
            </trkpt>
            <trkpt lon="100.971738" lat="12.941111">
                <ele>55.890000</ele>
                <time>2019-05-17T05:38:47Z</time>
            </trkpt>
            <trkpt lon="100.971806" lat="12.940967">
                <ele>55.410000</ele>
                <time>2019-05-17T05:38:52Z</time>
            </trkpt>
            <trkpt lon="100.972272" lat="12.940938">
                <ele>54.930000</ele>
                <time>2019-05-17T05:39:07Z</time>
            </trkpt>
            <trkpt lon="100.972650" lat="12.940904">
                <ele>54.930000</ele>
                <time>2019-05-17T05:39:20Z</time>
            </trkpt>
            <trkpt lon="100.972691" lat="12.940883">
                <ele>55.890000</ele>
                <time>2019-05-17T05:39:22Z</time>
            </trkpt>
            <trkpt lon="100.972719" lat="12.940815">
                <ele>55.890000</ele>
                <time>2019-05-17T05:39:26Z</time>
            </trkpt>
            <trkpt lon="100.972826" lat="12.940144">
                <ele>55.890000</ele>
                <time>2019-05-17T05:39:49Z</time>
            </trkpt>
            <trkpt lon="100.972779" lat="12.939524">
                <ele>56.370000</ele>
                <time>2019-05-17T05:40:09Z</time>
            </trkpt>
            <trkpt lon="100.972241" lat="12.939217">
                <ele>55.890000</ele>
                <time>2019-05-17T05:40:26Z</time>
            </trkpt>
            <trkpt lon="100.971470" lat="12.938863">
                <ele>55.410000</ele>
                <time>2019-05-17T05:40:48Z</time>
            </trkpt>
            <trkpt lon="100.970733" lat="12.938554">
                <ele>54.450000</ele>
                <time>2019-05-17T05:41:09Z</time>
            </trkpt>
            <trkpt lon="100.970544" lat="12.938462">
                <ele>54.930000</ele>
                <time>2019-05-17T05:41:15Z</time>
            </trkpt>
            <trkpt lon="100.970448" lat="12.938593">
                <ele>54.450000</ele>
                <time>2019-05-17T05:41:21Z</time>
            </trkpt>
            <trkpt lon="100.970181" lat="12.938790">
                <ele>54.930000</ele>
                <time>2019-05-17T05:41:33Z</time>
            </trkpt>
            <trkpt lon="100.969949" lat="12.938739">
                <ele>54.450000</ele>
                <time>2019-05-17T05:41:41Z</time>
            </trkpt>
            <trkpt lon="100.969946" lat="12.938580">
                <ele>54.450000</ele>
                <time>2019-05-17T05:41:48Z</time>
            </trkpt>
            <trkpt lon="100.970016" lat="12.938489">
                <ele>54.930000</ele>
                <time>2019-05-17T05:41:53Z</time>
            </trkpt>
            <trkpt lon="100.970068" lat="12.938391">
                <ele>53.970000</ele>
                <time>2019-05-17T05:42:02Z</time>
            </trkpt>
            <trkpt lon="100.970416" lat="12.938501">
                <ele>53.970000</ele>
                <time>2019-05-17T05:42:18Z</time>
            </trkpt>
            <trkpt lon="100.970471" lat="12.938466">
                <ele>54.450000</ele>
                <time>2019-05-17T05:42:21Z</time>
            </trkpt>
            <trkpt lon="100.970193" lat="12.938326">
                <ele>55.410000</ele>
                <time>2019-05-17T05:42:34Z</time>
            </trkpt>
            <trkpt lon="100.969570" lat="12.938068">
                <ele>55.410000</ele>
                <time>2019-05-17T05:42:56Z</time>
            </trkpt>
            <trkpt lon="100.968921" lat="12.937822">
                <ele>55.410000</ele>
                <time>2019-05-17T05:43:18Z</time>
            </trkpt>
            <trkpt lon="100.968434" lat="12.937386">
                <ele>55.410000</ele>
                <time>2019-05-17T05:43:38Z</time>
            </trkpt>
            <trkpt lon="100.968169" lat="12.936820">
                <ele>55.890000</ele>
                <time>2019-05-17T05:43:57Z</time>
            </trkpt>
            <trkpt lon="100.967850" lat="12.936073">
                <ele>55.410000</ele>
                <time>2019-05-17T05:44:18Z</time>
            </trkpt>
            <trkpt lon="100.967534" lat="12.935342">
                <ele>55.410000</ele>
                <time>2019-05-17T05:44:39Z</time>
            </trkpt>
            <trkpt lon="100.967206" lat="12.934626">
                <ele>54.930000</ele>
                <time>2019-05-17T05:44:59Z</time>
            </trkpt>
            <trkpt lon="100.966876" lat="12.933878">
                <ele>54.930000</ele>
                <time>2019-05-17T05:45:20Z</time>
            </trkpt>
            <trkpt lon="100.966643" lat="12.933373">
                <ele>54.930000</ele>
                <time>2019-05-17T05:45:35Z</time>
            </trkpt>
            <trkpt lon="100.966359" lat="12.932938">
                <ele>53.970000</ele>
                <time>2019-05-17T05:45:49Z</time>
            </trkpt>
            <trkpt lon="100.966094" lat="12.932399">
                <ele>53.490000</ele>
                <time>2019-05-17T05:46:05Z</time>
            </trkpt>
            <trkpt lon="100.965905" lat="12.932035">
                <ele>53.970000</ele>
                <time>2019-05-17T05:46:19Z</time>
            </trkpt>
            <trkpt lon="100.965881" lat="12.932014">
                <ele>53.490000</ele>
                <time>2019-05-17T05:46:21Z</time>
            </trkpt>
            <trkpt lon="100.965878" lat="12.931981">
                <ele>53.490000</ele>
                <time>2019-05-17T05:46:23Z</time>
            </trkpt>
            <trkpt lon="100.965875" lat="12.931944">
                <ele>53.010000</ele>
                <time>2019-05-17T05:46:26Z</time>
            </trkpt>
            <trkpt lon="100.965863" lat="12.931917">
                <ele>53.010000</ele>
                <time>2019-05-17T05:46:28Z</time>
            </trkpt>
            <trkpt lon="100.965835" lat="12.931886">
                <ele>53.010000</ele>
                <time>2019-05-17T05:46:30Z</time>
            </trkpt>
            <trkpt lon="100.965814" lat="12.931846">
                <ele>53.010000</ele>
                <time>2019-05-17T05:46:32Z</time>
            </trkpt>
            <trkpt lon="100.965806" lat="12.931787">
                <ele>53.010000</ele>
                <time>2019-05-17T05:46:36Z</time>
            </trkpt>
            <trkpt lon="100.965794" lat="12.931760">
                <ele>53.010000</ele>
                <time>2019-05-17T05:46:38Z</time>
            </trkpt>
            <trkpt lon="100.965780" lat="12.931730">
                <ele>53.010000</ele>
                <time>2019-05-17T05:46:40Z</time>
            </trkpt>
            <trkpt lon="100.965734" lat="12.931635">
                <ele>53.010000</ele>
                <time>2019-05-17T05:46:54Z</time>
            </trkpt>
            <trkpt lon="100.965684" lat="12.931608">
                <ele>53.490000</ele>
                <time>2019-05-17T05:47:02Z</time>
            </trkpt>
            <trkpt lon="100.965666" lat="12.931584">
                <ele>52.530000</ele>
                <time>2019-05-17T05:47:05Z</time>
            </trkpt>
            <trkpt lon="100.965625" lat="12.931512">
                <ele>52.530000</ele>
                <time>2019-05-17T05:47:10Z</time>
            </trkpt>
            <trkpt lon="100.965619" lat="12.931474">
                <ele>52.530000</ele>
                <time>2019-05-17T05:47:12Z</time>
            </trkpt>
            <trkpt lon="100.965603" lat="12.931433">
                <ele>52.530000</ele>
                <time>2019-05-17T05:47:14Z</time>
            </trkpt>
            <trkpt lon="100.965559" lat="12.931334">
                <ele>52.530000</ele>
                <time>2019-05-17T05:47:19Z</time>
            </trkpt>
            <trkpt lon="100.965443" lat="12.931025">
                <ele>53.010000</ele>
                <time>2019-05-17T05:47:33Z</time>
            </trkpt>
            <trkpt lon="100.965437" lat="12.930975">
                <ele>53.010000</ele>
                <time>2019-05-17T05:47:35Z</time>
            </trkpt>
            <trkpt lon="100.965449" lat="12.930949">
                <ele>53.010000</ele>
                <time>2019-05-17T05:47:36Z</time>
            </trkpt>
            <trkpt lon="100.965466" lat="12.930926">
                <ele>53.490000</ele>
                <time>2019-05-17T05:47:37Z</time>
            </trkpt>
            <trkpt lon="100.965491" lat="12.930893">
                <ele>54.450000</ele>
                <time>2019-05-17T05:47:39Z</time>
            </trkpt>
            <trkpt lon="100.965500" lat="12.930855">
                <ele>54.930000</ele>
                <time>2019-05-17T05:47:42Z</time>
            </trkpt>
            <trkpt lon="100.965489" lat="12.930820">
                <ele>54.450000</ele>
                <time>2019-05-17T05:47:44Z</time>
            </trkpt>
            <trkpt lon="100.965473" lat="12.930782">
                <ele>54.930000</ele>
                <time>2019-05-17T05:47:46Z</time>
            </trkpt>
            <trkpt lon="100.965454" lat="12.930743">
                <ele>54.930000</ele>
                <time>2019-05-17T05:47:48Z</time>
            </trkpt>
            <trkpt lon="100.965285" lat="12.930345">
                <ele>54.930000</ele>
                <time>2019-05-17T05:48:06Z</time>
            </trkpt>
            <trkpt lon="100.965189" lat="12.930090">
                <ele>54.450000</ele>
                <time>2019-05-17T05:48:20Z</time>
            </trkpt>
            <trkpt lon="100.965154" lat="12.929983">
                <ele>54.930000</ele>
                <time>2019-05-17T05:49:10Z</time>
            </trkpt>
            <trkpt lon="100.965074" lat="12.929609">
                <ele>54.930000</ele>
                <time>2019-05-17T05:49:27Z</time>
            </trkpt>
            <trkpt lon="100.965085" lat="12.929146">
                <ele>55.410000</ele>
                <time>2019-05-17T05:49:47Z</time>
            </trkpt>
            <trkpt lon="100.965253" lat="12.928619">
                <ele>55.410000</ele>
                <time>2019-05-17T05:50:06Z</time>
            </trkpt>
            <trkpt lon="100.965647" lat="12.928131">
                <ele>55.410000</ele>
                <time>2019-05-17T05:50:26Z</time>
            </trkpt>
            <trkpt lon="100.966100" lat="12.927820">
                <ele>56.370000</ele>
                <time>2019-05-17T05:50:45Z</time>
            </trkpt>
            <trkpt lon="100.966618" lat="12.927552">
                <ele>56.370000</ele>
                <time>2019-05-17T05:51:05Z</time>
            </trkpt>
            <trkpt lon="100.967344" lat="12.927086">
                <ele>55.890000</ele>
                <time>2019-05-17T05:51:27Z</time>
            </trkpt>
            <trkpt lon="100.968070" lat="12.926427">
                <ele>55.890000</ele>
                <time>2019-05-17T05:51:49Z</time>
            </trkpt>
            <trkpt lon="100.968752" lat="12.925792">
                <ele>55.410000</ele>
                <time>2019-05-17T05:52:11Z</time>
            </trkpt>
            <trkpt lon="100.969372" lat="12.925124">
                <ele>55.410000</ele>
                <time>2019-05-17T05:52:33Z</time>
            </trkpt>
            <trkpt lon="100.970021" lat="12.924426">
                <ele>55.410000</ele>
                <time>2019-05-17T05:52:56Z</time>
            </trkpt>
            <trkpt lon="100.970824" lat="12.923981">
                <ele>55.410000</ele>
                <time>2019-05-17T05:53:18Z</time>
            </trkpt>
            <trkpt lon="100.971324" lat="12.923593">
                <ele>56.860000</ele>
                <time>2019-05-17T05:53:36Z</time>
            </trkpt>
            <trkpt lon="100.971324" lat="12.923552">
                <ele>56.860000</ele>
                <time>2019-05-17T05:53:37Z</time>
            </trkpt>
            <trkpt lon="100.971227" lat="12.922685">
                <ele>55.890000</ele>
                <time>2019-05-17T05:53:57Z</time>
            </trkpt>
            <trkpt lon="100.971129" lat="12.922339">
                <ele>55.890000</ele>
                <time>2019-05-17T05:54:06Z</time>
            </trkpt>
            <trkpt lon="100.971116" lat="12.922301">
                <ele>55.890000</ele>
                <time>2019-05-17T05:54:07Z</time>
            </trkpt>
            <trkpt lon="100.971101" lat="12.922265">
                <ele>55.890000</ele>
                <time>2019-05-17T05:54:08Z</time>
            </trkpt>
            <trkpt lon="100.970648" lat="12.921532">
                <ele>56.370000</ele>
                <time>2019-05-17T05:54:30Z</time>
            </trkpt>
            <trkpt lon="100.970141" lat="12.920834">
                <ele>55.890000</ele>
                <time>2019-05-17T05:54:47Z</time>
            </trkpt>
            <trkpt lon="100.969426" lat="12.920256">
                <ele>55.410000</ele>
                <time>2019-05-17T05:55:07Z</time>
            </trkpt>
            <trkpt lon="100.968844" lat="12.919931">
                <ele>55.890000</ele>
                <time>2019-05-17T05:55:24Z</time>
            </trkpt>
            <trkpt lon="100.968044" lat="12.919731">
                <ele>55.890000</ele>
                <time>2019-05-17T05:55:46Z</time>
            </trkpt>
            <trkpt lon="100.967571" lat="12.920110">
                <ele>55.890000</ele>
                <time>2019-05-17T05:56:03Z</time>
            </trkpt>
            <trkpt lon="100.967085" lat="12.920319">
                <ele>55.410000</ele>
                <time>2019-05-17T05:56:17Z</time>
            </trkpt>
            <trkpt lon="100.966574" lat="12.920465">
                <ele>55.890000</ele>
                <time>2019-05-17T05:56:31Z</time>
            </trkpt>
            <trkpt lon="100.966073" lat="12.920607">
                <ele>54.930000</ele>
                <time>2019-05-17T05:56:46Z</time>
            </trkpt>
            <trkpt lon="100.965957" lat="12.920656">
                <ele>55.410000</ele>
                <time>2019-05-17T05:56:50Z</time>
            </trkpt>
            <trkpt lon="100.965938" lat="12.920686">
                <ele>54.930000</ele>
                <time>2019-05-17T05:56:51Z</time>
            </trkpt>
            <trkpt lon="100.965918" lat="12.920718">
                <ele>55.410000</ele>
                <time>2019-05-17T05:56:52Z</time>
            </trkpt>
            <trkpt lon="100.965891" lat="12.920747">
                <ele>54.930000</ele>
                <time>2019-05-17T05:56:53Z</time>
            </trkpt>
            <trkpt lon="100.965860" lat="12.920767">
                <ele>54.930000</ele>
                <time>2019-05-17T05:56:54Z</time>
            </trkpt>
            <trkpt lon="100.965825" lat="12.920780">
                <ele>54.930000</ele>
                <time>2019-05-17T05:56:55Z</time>
            </trkpt>
            <trkpt lon="100.965788" lat="12.920789">
                <ele>54.930000</ele>
                <time>2019-05-17T05:56:56Z</time>
            </trkpt>
            <trkpt lon="100.965752" lat="12.920799">
                <ele>54.930000</ele>
                <time>2019-05-17T05:56:57Z</time>
            </trkpt>
            <trkpt lon="100.965716" lat="12.920810">
                <ele>54.930000</ele>
                <time>2019-05-17T05:56:58Z</time>
            </trkpt>
            <trkpt lon="100.965679" lat="12.920818">
                <ele>54.930000</ele>
                <time>2019-05-17T05:56:59Z</time>
            </trkpt>
            <trkpt lon="100.965608" lat="12.920841">
                <ele>54.930000</ele>
                <time>2019-05-17T05:57:01Z</time>
            </trkpt>
            <trkpt lon="100.965578" lat="12.920862">
                <ele>54.450000</ele>
                <time>2019-05-17T05:57:02Z</time>
            </trkpt>
            <trkpt lon="100.965547" lat="12.920884">
                <ele>54.450000</ele>
                <time>2019-05-17T05:57:03Z</time>
            </trkpt>
            <trkpt lon="100.965513" lat="12.920900">
                <ele>54.450000</ele>
                <time>2019-05-17T05:57:04Z</time>
            </trkpt>
            <trkpt lon="100.965478" lat="12.920914">
                <ele>54.450000</ele>
                <time>2019-05-17T05:57:05Z</time>
            </trkpt>
            <trkpt lon="100.964698" lat="12.921127">
                <ele>54.450000</ele>
                <time>2019-05-17T05:57:26Z</time>
            </trkpt>
            <trkpt lon="100.963935" lat="12.921343">
                <ele>54.930000</ele>
                <time>2019-05-17T05:57:47Z</time>
            </trkpt>
            <trkpt lon="100.963107" lat="12.921356">
                <ele>54.450000</ele>
                <time>2019-05-17T05:58:09Z</time>
            </trkpt>
            <trkpt lon="100.962538" lat="12.921255">
                <ele>54.450000</ele>
                <time>2019-05-17T05:58:26Z</time>
            </trkpt>
            <trkpt lon="100.961785" lat="12.921077">
                <ele>54.450000</ele>
                <time>2019-05-17T05:58:47Z</time>
            </trkpt>
            <trkpt lon="100.961281" lat="12.920964">
                <ele>54.450000</ele>
                <time>2019-05-17T05:59:03Z</time>
            </trkpt>
            <trkpt lon="100.961253" lat="12.920971">
                <ele>54.450000</ele>
                <time>2019-05-17T05:59:05Z</time>
            </trkpt>
            <trkpt lon="100.961271" lat="12.920941">
                <ele>53.970000</ele>
                <time>2019-05-17T05:59:10Z</time>
            </trkpt>
            <trkpt lon="100.961351" lat="12.920883">
                <ele>54.930000</ele>
                <time>2019-05-17T05:59:18Z</time>
            </trkpt>
            <trkpt lon="100.961522" lat="12.920537">
                <ele>54.930000</ele>
                <time>2019-05-17T05:59:34Z</time>
            </trkpt>
            <trkpt lon="100.961505" lat="12.920371">
                <ele>55.410000</ele>
                <time>2019-05-17T05:59:46Z</time>
            </trkpt>
            <trkpt lon="100.961500" lat="12.920329">
                <ele>54.450000</ele>
                <time>2019-05-17T06:00:02Z</time>
            </trkpt>
            <trkpt lon="100.961496" lat="12.920206">
                <ele>55.890000</ele>
                <time>2019-05-17T06:00:19Z</time>
            </trkpt>
            <trkpt lon="100.961383" lat="12.919905">
                <ele>56.860000</ele>
                <time>2019-05-17T06:00:37Z</time>
            </trkpt>
            <trkpt lon="100.961304" lat="12.919552">
                <ele>57.820000</ele>
                <time>2019-05-17T06:00:55Z</time>
            </trkpt>
            <trkpt lon="100.961199" lat="12.919194">
                <ele>57.820000</ele>
                <time>2019-05-17T06:01:12Z</time>
            </trkpt>
            <trkpt lon="100.961180" lat="12.918645">
                <ele>58.780000</ele>
                <time>2019-05-17T06:01:32Z</time>
            </trkpt>
            <trkpt lon="100.961201" lat="12.918177">
                <ele>59.260000</ele>
                <time>2019-05-17T06:01:50Z</time>
            </trkpt>
            <trkpt lon="100.961350" lat="12.917786">
                <ele>59.740000</ele>
                <time>2019-05-17T06:02:08Z</time>
            </trkpt>
            <trkpt lon="100.961323" lat="12.917310">
                <ele>60.220000</ele>
                <time>2019-05-17T06:02:26Z</time>
            </trkpt>
            <trkpt lon="100.961284" lat="12.916888">
                <ele>60.700000</ele>
                <time>2019-05-17T06:02:45Z</time>
            </trkpt>
            <trkpt lon="100.961262" lat="12.916522">
                <ele>61.660000</ele>
                <time>2019-05-17T06:03:07Z</time>
            </trkpt>
            <trkpt lon="100.961486" lat="12.916591">
                <ele>83.770000</ele>
                <time>2019-02-24T05:30:28Z</time>
            </trkpt>
            <trkpt lon="100.962017" lat="12.916603">
                <ele>85.210000</ele>
                <time>2019-02-24T05:30:46Z</time>
            </trkpt>
            <trkpt lon="100.962213" lat="12.916465">
                <ele>85.690000</ele>
                <time>2019-02-24T05:30:59Z</time>
            </trkpt>
            <trkpt lon="100.962441" lat="12.915896">
                <ele>86.180000</ele>
                <time>2019-02-24T05:31:18Z</time>
            </trkpt>
            <trkpt lon="100.962719" lat="12.915389">
                <ele>83.770000</ele>
                <time>2019-02-24T05:37:03Z</time>
            </trkpt>
            <trkpt lon="100.962960" lat="12.914571">
                <ele>83.290000</ele>
                <time>2019-02-24T05:37:22Z</time>
            </trkpt>
            <trkpt lon="100.963549" lat="12.913730">
                <ele>83.290000</ele>
                <time>2019-02-24T05:37:45Z</time>
            </trkpt>
            <trkpt lon="100.964283" lat="12.913461">
                <ele>83.290000</ele>
                <time>2019-02-24T05:38:06Z</time>
            </trkpt>
            <trkpt lon="100.964538" lat="12.913386">
                <ele>83.770000</ele>
                <time>2019-02-24T05:38:21Z</time>
            </trkpt>
            <trkpt lon="100.964643" lat="12.913088">
                <ele>84.250000</ele>
                <time>2019-02-24T05:38:49Z</time>
            </trkpt>
            <trkpt lon="100.964639" lat="12.913104">
                <ele>84.730000</ele>
                <time>2019-02-24T05:39:37Z</time>
            </trkpt>
            <trkpt lon="100.964620" lat="12.913061">
                <ele>85.210000</ele>
                <time>2019-02-24T05:40:02Z</time>
            </trkpt>
            <trkpt lon="100.964593" lat="12.913131">
                <ele>84.730000</ele>
                <time>2019-02-24T05:40:36Z</time>
            </trkpt>
            <trkpt lon="100.964680" lat="12.913091">
                <ele>85.690000</ele>
                <time>2019-02-24T05:41:04Z</time>
            </trkpt>
            <trkpt lon="100.964724" lat="12.913251">
                <ele>86.180000</ele>
                <time>2019-02-24T05:41:25Z</time>
            </trkpt>
            <trkpt lon="100.964679" lat="12.913210">
                <ele>86.180000</ele>
                <time>2019-02-24T05:41:45Z</time>
            </trkpt>
            <trkpt lon="100.964681" lat="12.913219">
                <ele>84.250000</ele>
                <time>2019-02-24T05:45:06Z</time>
            </trkpt>
            <trkpt lon="100.964682" lat="12.913190">
                <ele>82.810000</ele>
                <time>2019-02-24T05:47:42Z</time>
            </trkpt>
            <trkpt lon="100.964775" lat="12.913130">
                <ele>82.330000</ele>
                <time>2019-02-24T05:47:49Z</time>
            </trkpt>
            <trkpt lon="100.965248" lat="12.913038">
                <ele>82.330000</ele>
                <time>2019-02-24T05:48:07Z</time>
            </trkpt>
            <trkpt lon="100.965767" lat="12.912844">
                <ele>81.370000</ele>
                <time>2019-02-24T05:48:24Z</time>
            </trkpt>
            <trkpt lon="100.966401" lat="12.912740">
                <ele>81.370000</ele>
                <time>2019-02-24T05:48:41Z</time>
            </trkpt>
            <trkpt lon="100.967061" lat="12.912743">
                <ele>81.850000</ele>
                <time>2019-02-24T05:48:59Z</time>
            </trkpt>
            <trkpt lon="100.967610" lat="12.912761">
                <ele>81.850000</ele>
                <time>2019-02-24T05:49:15Z</time>
            </trkpt>
            <trkpt lon="100.968285" lat="12.912686">
                <ele>82.330000</ele>
                <time>2019-02-24T05:49:34Z</time>
            </trkpt>
            <trkpt lon="100.968724" lat="12.912536">
                <ele>82.330000</ele>
                <time>2019-02-24T05:49:48Z</time>
            </trkpt>
            <trkpt lon="100.969408" lat="12.912430">
                <ele>82.810000</ele>
                <time>2019-02-24T05:50:08Z</time>
            </trkpt>
            <trkpt lon="100.970007" lat="12.912464">
                <ele>83.290000</ele>
                <time>2019-02-24T05:50:24Z</time>
            </trkpt>
            <trkpt lon="100.970580" lat="12.912346">
                <ele>82.810000</ele>
                <time>2019-02-24T05:50:40Z</time>
            </trkpt>
            <trkpt lon="100.971252" lat="12.911899">
                <ele>82.810000</ele>
                <time>2019-02-24T05:51:01Z</time>
            </trkpt>
            <trkpt lon="100.971509" lat="12.911383">
                <ele>83.290000</ele>
                <time>2019-02-24T05:51:16Z</time>
            </trkpt>
            <trkpt lon="100.971842" lat="12.910867">
                <ele>84.250000</ele>
                <time>2019-02-24T05:51:34Z</time>
            </trkpt>
            <trkpt lon="100.972215" lat="12.910451">
                <ele>84.250000</ele>
                <time>2019-02-24T05:51:52Z</time>
            </trkpt>
            <trkpt lon="100.972635" lat="12.910127">
                <ele>84.730000</ele>
                <time>2019-02-24T05:52:10Z</time>
            </trkpt>
            <trkpt lon="100.972793" lat="12.910019">
                <ele>85.210000</ele>
                <time>2019-02-24T05:52:17Z</time>
            </trkpt>
            <trkpt lon="100.972826" lat="12.909922">
                <ele>84.730000</ele>
                <time>2019-02-24T05:52:21Z</time>
            </trkpt>
            <trkpt lon="100.972769" lat="12.909507">
                <ele>85.690000</ele>
                <time>2019-02-24T05:52:39Z</time>
            </trkpt>
            <trkpt lon="100.972669" lat="12.909196">
                <ele>87.140000</ele>
                <time>2019-02-24T05:52:56Z</time>
            </trkpt>
            <trkpt lon="100.972517" lat="12.908832">
                <ele>87.620000</ele>
                <time>2019-02-24T05:53:18Z</time>
            </trkpt>
            <trkpt lon="100.972328" lat="12.908366">
                <ele>88.580000</ele>
                <time>2019-02-24T05:53:44Z</time>
            </trkpt>
            <trkpt lon="100.972216" lat="12.908028">
                <ele>89.540000</ele>
                <time>2019-02-24T05:54:02Z</time>
            </trkpt>
            <trkpt lon="100.972118" lat="12.907621">
                <ele>90.500000</ele>
                <time>2019-02-24T05:54:21Z</time>
            </trkpt>
            <trkpt lon="100.972011" lat="12.907239">
                <ele>91.940000</ele>
                <time>2019-02-24T05:54:39Z</time>
            </trkpt>
            <trkpt lon="100.972043" lat="12.906957">
                <ele>92.420000</ele>
                <time>2019-02-24T05:54:54Z</time>
            </trkpt>
            <trkpt lon="100.972154" lat="12.906967">
                <ele>92.420000</ele>
                <time>2019-02-24T05:55:01Z</time>
            </trkpt>
            <trkpt lon="100.972553" lat="12.906898">
                <ele>92.900000</ele>
                <time>2019-02-24T05:55:20Z</time>
            </trkpt>
            <trkpt lon="100.972728" lat="12.906604">
                <ele>93.870000</ele>
                <time>2019-02-24T05:55:34Z</time>
            </trkpt>
            <trkpt lon="100.972804" lat="12.906183">
                <ele>93.390000</ele>
                <time>2019-02-24T05:55:52Z</time>
            </trkpt>
            <trkpt lon="100.972825" lat="12.906131">
                <ele>93.390000</ele>
                <time>2019-02-24T05:56:17Z</time>
            </trkpt>
            <trkpt lon="100.972923" lat="12.906100">
                <ele>93.390000</ele>
                <time>2019-02-24T05:56:23Z</time>
            </trkpt>
            <trkpt lon="100.973319" lat="12.906082">
                <ele>92.900000</ele>
                <time>2019-02-24T05:56:41Z</time>
            </trkpt>
            <trkpt lon="100.973402" lat="12.906123">
                <ele>92.900000</ele>
                <time>2019-02-24T05:56:45Z</time>
            </trkpt>
            <trkpt lon="100.973473" lat="12.906329">
                <ele>92.900000</ele>
                <time>2019-02-24T05:56:53Z</time>
            </trkpt>
            <trkpt lon="100.973632" lat="12.906389">
                <ele>93.390000</ele>
                <time>2019-02-24T05:56:59Z</time>
            </trkpt>
            <trkpt lon="100.974090" lat="12.906392">
                <ele>93.390000</ele>
                <time>2019-02-24T05:57:18Z</time>
            </trkpt>
            <trkpt lon="100.974208" lat="12.906396">
                <ele>93.390000</ele>
                <time>2019-02-24T05:57:23Z</time>
            </trkpt>
            <trkpt lon="100.974339" lat="12.906226">
                <ele>93.870000</ele>
                <time>2019-02-24T05:57:30Z</time>
            </trkpt>
            <trkpt lon="100.961262" lat="12.916521">
                <ele>61.660000</ele>
                <time>2019-05-17T06:04:15Z</time>
            </trkpt>
        </trkseg>
    </trk>
</gpx>